<?xml version="1.0" encoding="UTF-8" standalone="no" ?>
<gpx xmlns="http://www.topografix.com/GPX/1/1" xmlns:xsi="http://www.w3.org/2001/XMLSchema-instance" xsi:schemaLocation="http://www.topografix.com/GPX/1/1 http://www.topografix.com/GPX/1/1/gpx.xsd" version="1.1" creator="VisuGPX - https://www.visugpx.com">
  <metadata>
    <name>etape 4 Avon Ville st Jacques </name>
    <desc><![CDATA[
5h:14m:21s | 18.0 km]]></desc>
  </metadata>
  <trk>
    <name><![CDATA[etape 4 2014-03-02 08:35:47]]></name>
    <desc><![CDATA[5h:14m:21s | 18.0 km]]></desc>
    <trkseg>
      <trkpt lat="48.40539" lon="2.72125">
        <ele>109.5</ele>
        <time>2014-03-02T07:35:50Z</time>
      </trkpt>
      <trkpt lat="48.4055" lon="2.72155">
        <ele>91.66</ele>
        <time>2014-03-02T07:36:45Z</time>
      </trkpt>
      <trkpt lat="48.40542" lon="2.72122">
        <ele>92.42</ele>
        <time>2014-03-02T07:37:37Z</time>
      </trkpt>
      <trkpt lat="48.40529" lon="2.72095">
        <ele>98.46</ele>
        <time>2014-03-02T07:38:24Z</time>
      </trkpt>
      <trkpt lat="48.40532" lon="2.7206">
        <ele>102.87</ele>
        <time>2014-03-02T07:41:11Z</time>
      </trkpt>
      <trkpt lat="48.40533" lon="2.72026">
        <ele>106.42</ele>
        <time>2014-03-02T07:41:37Z</time>
      </trkpt>
      <trkpt lat="48.40534" lon="2.71992">
        <ele>105.47</ele>
        <time>2014-03-02T07:42:06Z</time>
      </trkpt>
      <trkpt lat="48.4053" lon="2.71957">
        <ele>108.32</ele>
        <time>2014-03-02T07:42:22Z</time>
      </trkpt>
      <trkpt lat="48.40508" lon="2.7197">
        <ele>102.8</ele>
        <time>2014-03-02T07:42:46Z</time>
      </trkpt>
      <trkpt lat="48.40488" lon="2.71949">
        <ele>107.28</ele>
        <time>2014-03-02T07:42:57Z</time>
      </trkpt>
      <trkpt lat="48.40486" lon="2.71982">
        <ele>111.25</ele>
        <time>2014-03-02T07:43:32Z</time>
      </trkpt>
      <trkpt lat="48.40466" lon="2.71998">
        <ele>113.5</ele>
        <time>2014-03-02T07:44:04Z</time>
      </trkpt>
      <trkpt lat="48.40446" lon="2.72017">
        <ele>113.85</ele>
        <time>2014-03-02T07:44:30Z</time>
      </trkpt>
      <trkpt lat="48.40447" lon="2.72052">
        <ele>114.51</ele>
        <time>2014-03-02T07:44:48Z</time>
      </trkpt>
      <trkpt lat="48.40446" lon="2.72086">
        <ele>114.99</ele>
        <time>2014-03-02T07:45:27Z</time>
      </trkpt>
      <trkpt lat="48.40441" lon="2.72119">
        <ele>118.73</ele>
        <time>2014-03-02T07:45:38Z</time>
      </trkpt>
      <trkpt lat="48.40443" lon="2.72155">
        <ele>122.77</ele>
        <time>2014-03-02T07:45:54Z</time>
      </trkpt>
      <trkpt lat="48.40441" lon="2.7219">
        <ele>124.85</ele>
        <time>2014-03-02T07:46:17Z</time>
      </trkpt>
      <trkpt lat="48.40442" lon="2.72225">
        <ele>126.87</ele>
        <time>2014-03-02T07:46:36Z</time>
      </trkpt>
      <trkpt lat="48.40444" lon="2.72259">
        <ele>125.57</ele>
        <time>2014-03-02T07:47:00Z</time>
      </trkpt>
      <trkpt lat="48.4045" lon="2.72293">
        <ele>126.13</ele>
        <time>2014-03-02T07:47:21Z</time>
      </trkpt>
      <trkpt lat="48.40451" lon="2.72329">
        <ele>124.62</ele>
        <time>2014-03-02T07:47:42Z</time>
      </trkpt>
      <trkpt lat="48.40452" lon="2.72364">
        <ele>124.81</ele>
        <time>2014-03-02T07:48:04Z</time>
      </trkpt>
      <trkpt lat="48.40454" lon="2.72399">
        <ele>124.61</ele>
        <time>2014-03-02T07:48:23Z</time>
      </trkpt>
      <trkpt lat="48.40458" lon="2.72434">
        <ele>123.09</ele>
        <time>2014-03-02T07:48:53Z</time>
      </trkpt>
      <trkpt lat="48.40462" lon="2.72468">
        <ele>122.38</ele>
        <time>2014-03-02T07:49:11Z</time>
      </trkpt>
      <trkpt lat="48.40456" lon="2.72502">
        <ele>125.76</ele>
        <time>2014-03-02T07:49:30Z</time>
      </trkpt>
      <trkpt lat="48.4046" lon="2.72536">
        <ele>125.9</ele>
        <time>2014-03-02T07:49:47Z</time>
      </trkpt>
      <trkpt lat="48.40465" lon="2.72571">
        <ele>126.03</ele>
        <time>2014-03-02T07:50:10Z</time>
      </trkpt>
      <trkpt lat="48.40467" lon="2.72606">
        <ele>126.76</ele>
        <time>2014-03-02T07:50:27Z</time>
      </trkpt>
      <trkpt lat="48.40471" lon="2.72639">
        <ele>127.41</ele>
        <time>2014-03-02T07:50:46Z</time>
      </trkpt>
      <trkpt lat="48.40479" lon="2.72672">
        <ele>125.6</ele>
        <time>2014-03-02T07:51:08Z</time>
      </trkpt>
      <trkpt lat="48.40482" lon="2.72706">
        <ele>127.37</ele>
        <time>2014-03-02T07:51:28Z</time>
      </trkpt>
      <trkpt lat="48.4049" lon="2.72738">
        <ele>125.38</ele>
        <time>2014-03-02T07:51:46Z</time>
      </trkpt>
      <trkpt lat="48.40471" lon="2.72761">
        <ele>125.01</ele>
        <time>2014-03-02T07:52:06Z</time>
      </trkpt>
      <trkpt lat="48.4045" lon="2.72775">
        <ele>126.98</ele>
        <time>2014-03-02T07:52:23Z</time>
      </trkpt>
      <trkpt lat="48.40432" lon="2.72797">
        <ele>128.24</ele>
        <time>2014-03-02T07:52:36Z</time>
      </trkpt>
      <trkpt lat="48.40411" lon="2.72812">
        <ele>131.27</ele>
        <time>2014-03-02T07:52:57Z</time>
      </trkpt>
      <trkpt lat="48.4039" lon="2.72826">
        <ele>131.96</ele>
        <time>2014-03-02T07:53:14Z</time>
      </trkpt>
      <trkpt lat="48.40369" lon="2.7284">
        <ele>132.3</ele>
        <time>2014-03-02T07:53:32Z</time>
      </trkpt>
      <trkpt lat="48.40371" lon="2.72875">
        <ele>131.61</ele>
        <time>2014-03-02T07:54:10Z</time>
      </trkpt>
      <trkpt lat="48.40377" lon="2.72908">
        <ele>130.58</ele>
        <time>2014-03-02T07:54:33Z</time>
      </trkpt>
      <trkpt lat="48.4036" lon="2.72929">
        <ele>129.13</ele>
        <time>2014-03-02T07:55:16Z</time>
      </trkpt>
      <trkpt lat="48.40341" lon="2.72948">
        <ele>129.68</ele>
        <time>2014-03-02T07:55:44Z</time>
      </trkpt>
      <trkpt lat="48.40323" lon="2.7297">
        <ele>128.36</ele>
        <time>2014-03-02T07:56:09Z</time>
      </trkpt>
      <trkpt lat="48.40303" lon="2.72989">
        <ele>128.08</ele>
        <time>2014-03-02T07:56:29Z</time>
      </trkpt>
      <trkpt lat="48.40283" lon="2.73008">
        <ele>128.51</ele>
        <time>2014-03-02T07:56:53Z</time>
      </trkpt>
      <trkpt lat="48.40265" lon="2.73028">
        <ele>129.49</ele>
        <time>2014-03-02T07:57:07Z</time>
      </trkpt>
      <trkpt lat="48.40246" lon="2.73049">
        <ele>130.67</ele>
        <time>2014-03-02T07:57:33Z</time>
      </trkpt>
      <trkpt lat="48.40225" lon="2.73066">
        <ele>130.9</ele>
        <time>2014-03-02T07:57:50Z</time>
      </trkpt>
      <trkpt lat="48.40206" lon="2.73085">
        <ele>130.31</ele>
        <time>2014-03-02T07:58:11Z</time>
      </trkpt>
      <trkpt lat="48.40188" lon="2.73108">
        <ele>129.01</ele>
        <time>2014-03-02T07:58:30Z</time>
      </trkpt>
      <trkpt lat="48.4017" lon="2.7313">
        <ele>128.82</ele>
        <time>2014-03-02T07:58:52Z</time>
      </trkpt>
      <trkpt lat="48.4015" lon="2.7315">
        <ele>128.12</ele>
        <time>2014-03-02T07:59:12Z</time>
      </trkpt>
      <trkpt lat="48.40133" lon="2.73175">
        <ele>127.88</ele>
        <time>2014-03-02T07:59:32Z</time>
      </trkpt>
      <trkpt lat="48.40116" lon="2.73197">
        <ele>126.91</ele>
        <time>2014-03-02T07:59:51Z</time>
      </trkpt>
      <trkpt lat="48.401" lon="2.7322">
        <ele>127.42</ele>
        <time>2014-03-02T08:00:10Z</time>
      </trkpt>
      <trkpt lat="48.4008" lon="2.73239">
        <ele>128.57</ele>
        <time>2014-03-02T08:00:30Z</time>
      </trkpt>
      <trkpt lat="48.40063" lon="2.73266">
        <ele>129.59</ele>
        <time>2014-03-02T08:00:50Z</time>
      </trkpt>
      <trkpt lat="48.40048" lon="2.73292">
        <ele>129.75</ele>
        <time>2014-03-02T08:01:08Z</time>
      </trkpt>
      <trkpt lat="48.40032" lon="2.73317">
        <ele>131.71</ele>
        <time>2014-03-02T08:01:27Z</time>
      </trkpt>
      <trkpt lat="48.40016" lon="2.73341">
        <ele>131.85</ele>
        <time>2014-03-02T08:01:48Z</time>
      </trkpt>
      <trkpt lat="48.4" lon="2.73367">
        <ele>132.67</ele>
        <time>2014-03-02T08:02:08Z</time>
      </trkpt>
      <trkpt lat="48.39984" lon="2.73394">
        <ele>133.55</ele>
        <time>2014-03-02T08:02:28Z</time>
      </trkpt>
      <trkpt lat="48.39969" lon="2.73419">
        <ele>132.23</ele>
        <time>2014-03-02T08:02:44Z</time>
      </trkpt>
      <trkpt lat="48.39952" lon="2.73444">
        <ele>132.13</ele>
        <time>2014-03-02T08:03:00Z</time>
      </trkpt>
      <trkpt lat="48.39937" lon="2.73468">
        <ele>132.14</ele>
        <time>2014-03-02T08:03:23Z</time>
      </trkpt>
      <trkpt lat="48.39922" lon="2.73494">
        <ele>131.12</ele>
        <time>2014-03-02T08:03:43Z</time>
      </trkpt>
      <trkpt lat="48.39908" lon="2.73522">
        <ele>129.64</ele>
        <time>2014-03-02T08:04:04Z</time>
      </trkpt>
      <trkpt lat="48.39892" lon="2.73546">
        <ele>129.58</ele>
        <time>2014-03-02T08:04:25Z</time>
      </trkpt>
      <trkpt lat="48.3988" lon="2.73575">
        <ele>129.96</ele>
        <time>2014-03-02T08:04:44Z</time>
      </trkpt>
      <trkpt lat="48.39865" lon="2.73603">
        <ele>130.76</ele>
        <time>2014-03-02T08:05:01Z</time>
      </trkpt>
      <trkpt lat="48.39853" lon="2.73631">
        <ele>130.44</ele>
        <time>2014-03-02T08:05:22Z</time>
      </trkpt>
      <trkpt lat="48.39841" lon="2.73661">
        <ele>131.15</ele>
        <time>2014-03-02T08:05:43Z</time>
      </trkpt>
      <trkpt lat="48.39827" lon="2.73689">
        <ele>130.46</ele>
        <time>2014-03-02T08:06:01Z</time>
      </trkpt>
      <trkpt lat="48.39813" lon="2.73717">
        <ele>130.25</ele>
        <time>2014-03-02T08:06:21Z</time>
      </trkpt>
      <trkpt lat="48.39799" lon="2.73745">
        <ele>128.99</ele>
        <time>2014-03-02T08:06:40Z</time>
      </trkpt>
      <trkpt lat="48.39787" lon="2.73776">
        <ele>129.05</ele>
        <time>2014-03-02T08:06:58Z</time>
      </trkpt>
      <trkpt lat="48.39777" lon="2.73805">
        <ele>127.66</ele>
        <time>2014-03-02T08:07:16Z</time>
      </trkpt>
      <trkpt lat="48.39765" lon="2.73836">
        <ele>128.69</ele>
        <time>2014-03-02T08:07:33Z</time>
      </trkpt>
      <trkpt lat="48.39755" lon="2.73868">
        <ele>129.21</ele>
        <time>2014-03-02T08:07:52Z</time>
      </trkpt>
      <trkpt lat="48.39745" lon="2.739">
        <ele>129.37</ele>
        <time>2014-03-02T08:08:11Z</time>
      </trkpt>
      <trkpt lat="48.39734" lon="2.73931">
        <ele>129.04</ele>
        <time>2014-03-02T08:08:31Z</time>
      </trkpt>
      <trkpt lat="48.39724" lon="2.73961">
        <ele>128.88</ele>
        <time>2014-03-02T08:08:49Z</time>
      </trkpt>
      <trkpt lat="48.39715" lon="2.73993">
        <ele>128.44</ele>
        <time>2014-03-02T08:09:12Z</time>
      </trkpt>
      <trkpt lat="48.39705" lon="2.74024">
        <ele>129.06</ele>
        <time>2014-03-02T08:09:27Z</time>
      </trkpt>
      <trkpt lat="48.39696" lon="2.74057">
        <ele>128.83</ele>
        <time>2014-03-02T08:09:45Z</time>
      </trkpt>
      <trkpt lat="48.39688" lon="2.74089">
        <ele>128.29</ele>
        <time>2014-03-02T08:10:02Z</time>
      </trkpt>
      <trkpt lat="48.3968" lon="2.74122">
        <ele>127.12</ele>
        <time>2014-03-02T08:10:23Z</time>
      </trkpt>
      <trkpt lat="48.39673" lon="2.74156">
        <ele>126.81</ele>
        <time>2014-03-02T08:10:44Z</time>
      </trkpt>
      <trkpt lat="48.39666" lon="2.7419">
        <ele>126.22</ele>
        <time>2014-03-02T08:11:08Z</time>
      </trkpt>
      <trkpt lat="48.39658" lon="2.74222">
        <ele>125.33</ele>
        <time>2014-03-02T08:11:22Z</time>
      </trkpt>
      <trkpt lat="48.3965" lon="2.74254">
        <ele>126.65</ele>
        <time>2014-03-02T08:11:40Z</time>
      </trkpt>
      <trkpt lat="48.39645" lon="2.74288">
        <ele>125.86</ele>
        <time>2014-03-02T08:11:58Z</time>
      </trkpt>
      <trkpt lat="48.39638" lon="2.74322">
        <ele>125.01</ele>
        <time>2014-03-02T08:12:18Z</time>
      </trkpt>
      <trkpt lat="48.39633" lon="2.74356">
        <ele>123.97</ele>
        <time>2014-03-02T08:12:39Z</time>
      </trkpt>
      <trkpt lat="48.39628" lon="2.74391">
        <ele>122.24</ele>
        <time>2014-03-02T08:12:59Z</time>
      </trkpt>
      <trkpt lat="48.39621" lon="2.74425">
        <ele>122.81</ele>
        <time>2014-03-02T08:13:18Z</time>
      </trkpt>
      <trkpt lat="48.39615" lon="2.74459">
        <ele>123.39</ele>
        <time>2014-03-02T08:13:35Z</time>
      </trkpt>
      <trkpt lat="48.39612" lon="2.74495">
        <ele>122.85</ele>
        <time>2014-03-02T08:13:55Z</time>
      </trkpt>
      <trkpt lat="48.39607" lon="2.74528">
        <ele>123.1</ele>
        <time>2014-03-02T08:14:10Z</time>
      </trkpt>
      <trkpt lat="48.39606" lon="2.74564">
        <ele>124.1</ele>
        <time>2014-03-02T08:14:35Z</time>
      </trkpt>
      <trkpt lat="48.39602" lon="2.74598">
        <ele>124.93</ele>
        <time>2014-03-02T08:14:53Z</time>
      </trkpt>
      <trkpt lat="48.39599" lon="2.74633">
        <ele>124.28</ele>
        <time>2014-03-02T08:15:13Z</time>
      </trkpt>
      <trkpt lat="48.39598" lon="2.74667">
        <ele>122.53</ele>
        <time>2014-03-02T08:15:30Z</time>
      </trkpt>
      <trkpt lat="48.39593" lon="2.74701">
        <ele>123.02</ele>
        <time>2014-03-02T08:15:49Z</time>
      </trkpt>
      <trkpt lat="48.3959" lon="2.74735">
        <ele>123.88</ele>
        <time>2014-03-02T08:16:06Z</time>
      </trkpt>
      <trkpt lat="48.39585" lon="2.74769">
        <ele>124.13</ele>
        <time>2014-03-02T08:16:25Z</time>
      </trkpt>
      <trkpt lat="48.39585" lon="2.74804">
        <ele>123.81</ele>
        <time>2014-03-02T08:16:45Z</time>
      </trkpt>
      <trkpt lat="48.39582" lon="2.74838">
        <ele>123.44</ele>
        <time>2014-03-02T08:17:04Z</time>
      </trkpt>
      <trkpt lat="48.39582" lon="2.74872">
        <ele>123.7</ele>
        <time>2014-03-02T08:17:25Z</time>
      </trkpt>
      <trkpt lat="48.39578" lon="2.74906">
        <ele>123.17</ele>
        <time>2014-03-02T08:17:44Z</time>
      </trkpt>
      <trkpt lat="48.39574" lon="2.74941">
        <ele>124.3</ele>
        <time>2014-03-02T08:18:00Z</time>
      </trkpt>
      <trkpt lat="48.39574" lon="2.74976">
        <ele>123.52</ele>
        <time>2014-03-02T08:19:32Z</time>
      </trkpt>
      <trkpt lat="48.39567" lon="2.75008">
        <ele>123.39</ele>
        <time>2014-03-02T08:19:52Z</time>
      </trkpt>
      <trkpt lat="48.39564" lon="2.75042">
        <ele>123.02</ele>
        <time>2014-03-02T08:20:07Z</time>
      </trkpt>
      <trkpt lat="48.39561" lon="2.75075">
        <ele>127</ele>
        <time>2014-03-02T08:23:00Z</time>
      </trkpt>
      <trkpt lat="48.39557" lon="2.7511">
        <ele>127.7</ele>
        <time>2014-03-02T08:23:32Z</time>
      </trkpt>
      <trkpt lat="48.39553" lon="2.75143">
        <ele>125.95</ele>
        <time>2014-03-02T08:23:57Z</time>
      </trkpt>
      <trkpt lat="48.39548" lon="2.75177">
        <ele>125.77</ele>
        <time>2014-03-02T08:24:17Z</time>
      </trkpt>
      <trkpt lat="48.39548" lon="2.75211">
        <ele>125.93</ele>
        <time>2014-03-02T08:24:38Z</time>
      </trkpt>
      <trkpt lat="48.39548" lon="2.75246">
        <ele>125.32</ele>
        <time>2014-03-02T08:24:56Z</time>
      </trkpt>
      <trkpt lat="48.39545" lon="2.7528">
        <ele>126.17</ele>
        <time>2014-03-02T08:25:14Z</time>
      </trkpt>
      <trkpt lat="48.39546" lon="2.75316">
        <ele>126</ele>
        <time>2014-03-02T08:25:32Z</time>
      </trkpt>
      <trkpt lat="48.39546" lon="2.7535">
        <ele>125.86</ele>
        <time>2014-03-02T08:25:51Z</time>
      </trkpt>
      <trkpt lat="48.39551" lon="2.75382">
        <ele>125.66</ele>
        <time>2014-03-02T08:26:11Z</time>
      </trkpt>
      <trkpt lat="48.3955" lon="2.75417">
        <ele>126.56</ele>
        <time>2014-03-02T08:26:28Z</time>
      </trkpt>
      <trkpt lat="48.39549" lon="2.75451">
        <ele>127.67</ele>
        <time>2014-03-02T08:26:44Z</time>
      </trkpt>
      <trkpt lat="48.3954" lon="2.75483">
        <ele>127.5</ele>
        <time>2014-03-02T08:27:02Z</time>
      </trkpt>
      <trkpt lat="48.39541" lon="2.75518">
        <ele>127.51</ele>
        <time>2014-03-02T08:27:18Z</time>
      </trkpt>
      <trkpt lat="48.39539" lon="2.75553">
        <ele>127.25</ele>
        <time>2014-03-02T08:27:36Z</time>
      </trkpt>
      <trkpt lat="48.39538" lon="2.75587">
        <ele>129.16</ele>
        <time>2014-03-02T08:27:57Z</time>
      </trkpt>
      <trkpt lat="48.39538" lon="2.75622">
        <ele>129.3</ele>
        <time>2014-03-02T08:28:16Z</time>
      </trkpt>
      <trkpt lat="48.39534" lon="2.75656">
        <ele>129.2</ele>
        <time>2014-03-02T08:28:35Z</time>
      </trkpt>
      <trkpt lat="48.39533" lon="2.75693">
        <ele>128.84</ele>
        <time>2014-03-02T08:28:54Z</time>
      </trkpt>
      <trkpt lat="48.39529" lon="2.75727">
        <ele>129.3</ele>
        <time>2014-03-02T08:29:16Z</time>
      </trkpt>
      <trkpt lat="48.39523" lon="2.75762">
        <ele>128.48</ele>
        <time>2014-03-02T08:29:33Z</time>
      </trkpt>
      <trkpt lat="48.3952" lon="2.75795">
        <ele>129.3</ele>
        <time>2014-03-02T08:29:49Z</time>
      </trkpt>
      <trkpt lat="48.39516" lon="2.7583">
        <ele>129.13</ele>
        <time>2014-03-02T08:30:09Z</time>
      </trkpt>
      <trkpt lat="48.39515" lon="2.75864">
        <ele>129.94</ele>
        <time>2014-03-02T08:30:25Z</time>
      </trkpt>
      <trkpt lat="48.3951" lon="2.75899">
        <ele>130.98</ele>
        <time>2014-03-02T08:30:44Z</time>
      </trkpt>
      <trkpt lat="48.39499" lon="2.75931">
        <ele>131.11</ele>
        <time>2014-03-02T08:31:02Z</time>
      </trkpt>
      <trkpt lat="48.39488" lon="2.75962">
        <ele>131.53</ele>
        <time>2014-03-02T08:31:20Z</time>
      </trkpt>
      <trkpt lat="48.39485" lon="2.75999">
        <ele>131.61</ele>
        <time>2014-03-02T08:31:38Z</time>
      </trkpt>
      <trkpt lat="48.39486" lon="2.76035">
        <ele>131.3</ele>
        <time>2014-03-02T08:31:52Z</time>
      </trkpt>
      <trkpt lat="48.39474" lon="2.76064">
        <ele>129.59</ele>
        <time>2014-03-02T08:32:29Z</time>
      </trkpt>
      <trkpt lat="48.39473" lon="2.76098">
        <ele>130.55</ele>
        <time>2014-03-02T08:32:55Z</time>
      </trkpt>
      <trkpt lat="48.39467" lon="2.76131">
        <ele>130.58</ele>
        <time>2014-03-02T08:33:22Z</time>
      </trkpt>
      <trkpt lat="48.3947" lon="2.76165">
        <ele>130.71</ele>
        <time>2014-03-02T08:33:43Z</time>
      </trkpt>
      <trkpt lat="48.39472" lon="2.76199">
        <ele>131.07</ele>
        <time>2014-03-02T08:33:59Z</time>
      </trkpt>
      <trkpt lat="48.39466" lon="2.76235">
        <ele>131.17</ele>
        <time>2014-03-02T08:34:19Z</time>
      </trkpt>
      <trkpt lat="48.39463" lon="2.76269">
        <ele>132.13</ele>
        <time>2014-03-02T08:34:39Z</time>
      </trkpt>
      <trkpt lat="48.39467" lon="2.76304">
        <ele>132.78</ele>
        <time>2014-03-02T08:35:04Z</time>
      </trkpt>
      <trkpt lat="48.39466" lon="2.76338">
        <ele>130.48</ele>
        <time>2014-03-02T08:35:18Z</time>
      </trkpt>
      <trkpt lat="48.39469" lon="2.76374">
        <ele>130.84</ele>
        <time>2014-03-02T08:35:37Z</time>
      </trkpt>
      <trkpt lat="48.3947" lon="2.76408">
        <ele>130.53</ele>
        <time>2014-03-02T08:35:51Z</time>
      </trkpt>
      <trkpt lat="48.39463" lon="2.76441">
        <ele>129.57</ele>
        <time>2014-03-02T08:36:16Z</time>
      </trkpt>
      <trkpt lat="48.39454" lon="2.76472">
        <ele>129.52</ele>
        <time>2014-03-02T08:36:35Z</time>
      </trkpt>
      <trkpt lat="48.39449" lon="2.76505">
        <ele>131.09</ele>
        <time>2014-03-02T08:37:04Z</time>
      </trkpt>
      <trkpt lat="48.39444" lon="2.7654">
        <ele>132.01</ele>
        <time>2014-03-02T08:37:20Z</time>
      </trkpt>
      <trkpt lat="48.39434" lon="2.76573">
        <ele>132.69</ele>
        <time>2014-03-02T08:37:36Z</time>
      </trkpt>
      <trkpt lat="48.39433" lon="2.76608">
        <ele>132.49</ele>
        <time>2014-03-02T08:37:55Z</time>
      </trkpt>
      <trkpt lat="48.39433" lon="2.76643">
        <ele>132.63</ele>
        <time>2014-03-02T08:38:17Z</time>
      </trkpt>
      <trkpt lat="48.39431" lon="2.76678">
        <ele>131.08</ele>
        <time>2014-03-02T08:38:37Z</time>
      </trkpt>
      <trkpt lat="48.39434" lon="2.76712">
        <ele>133.46</ele>
        <time>2014-03-02T08:38:59Z</time>
      </trkpt>
      <trkpt lat="48.39429" lon="2.76747">
        <ele>132.18</ele>
        <time>2014-03-02T08:39:18Z</time>
      </trkpt>
      <trkpt lat="48.3942" lon="2.76779">
        <ele>132.12</ele>
        <time>2014-03-02T08:39:34Z</time>
      </trkpt>
      <trkpt lat="48.39413" lon="2.76812">
        <ele>133</ele>
        <time>2014-03-02T08:39:51Z</time>
      </trkpt>
      <trkpt lat="48.39413" lon="2.76846">
        <ele>134.23</ele>
        <time>2014-03-02T08:40:25Z</time>
      </trkpt>
      <trkpt lat="48.39416" lon="2.76879">
        <ele>142.13</ele>
        <time>2014-03-02T08:42:43Z</time>
      </trkpt>
      <trkpt lat="48.39419" lon="2.76916">
        <ele>143.04</ele>
        <time>2014-03-02T08:43:08Z</time>
      </trkpt>
      <trkpt lat="48.39417" lon="2.76951">
        <ele>143.08</ele>
        <time>2014-03-02T08:43:29Z</time>
      </trkpt>
      <trkpt lat="48.39418" lon="2.76985">
        <ele>142.87</ele>
        <time>2014-03-02T08:43:48Z</time>
      </trkpt>
      <trkpt lat="48.39415" lon="2.77019">
        <ele>144.67</ele>
        <time>2014-03-02T08:44:09Z</time>
      </trkpt>
      <trkpt lat="48.39407" lon="2.77052">
        <ele>146.09</ele>
        <time>2014-03-02T08:44:29Z</time>
      </trkpt>
      <trkpt lat="48.39407" lon="2.77086">
        <ele>145.4</ele>
        <time>2014-03-02T08:44:47Z</time>
      </trkpt>
      <trkpt lat="48.39406" lon="2.7712">
        <ele>145.14</ele>
        <time>2014-03-02T08:45:11Z</time>
      </trkpt>
      <trkpt lat="48.394" lon="2.77153">
        <ele>144.27</ele>
        <time>2014-03-02T08:45:31Z</time>
      </trkpt>
      <trkpt lat="48.39396" lon="2.77188">
        <ele>143.45</ele>
        <time>2014-03-02T08:45:52Z</time>
      </trkpt>
      <trkpt lat="48.39395" lon="2.77221">
        <ele>143.9</ele>
        <time>2014-03-02T08:46:16Z</time>
      </trkpt>
      <trkpt lat="48.39397" lon="2.77257">
        <ele>144.9</ele>
        <time>2014-03-02T08:46:45Z</time>
      </trkpt>
      <trkpt lat="48.39393" lon="2.77291">
        <ele>144.72</ele>
        <time>2014-03-02T08:47:11Z</time>
      </trkpt>
      <trkpt lat="48.39391" lon="2.77327">
        <ele>145.49</ele>
        <time>2014-03-02T08:47:28Z</time>
      </trkpt>
      <trkpt lat="48.39396" lon="2.7736">
        <ele>146.4</ele>
        <time>2014-03-02T08:47:53Z</time>
      </trkpt>
      <trkpt lat="48.39388" lon="2.77393">
        <ele>147.53</ele>
        <time>2014-03-02T08:48:11Z</time>
      </trkpt>
      <trkpt lat="48.39383" lon="2.77428">
        <ele>147.25</ele>
        <time>2014-03-02T08:48:28Z</time>
      </trkpt>
      <trkpt lat="48.39374" lon="2.77461">
        <ele>146.23</ele>
        <time>2014-03-02T08:49:05Z</time>
      </trkpt>
      <trkpt lat="48.39371" lon="2.77495">
        <ele>147.09</ele>
        <time>2014-03-02T08:49:23Z</time>
      </trkpt>
      <trkpt lat="48.39373" lon="2.77531">
        <ele>147.14</ele>
        <time>2014-03-02T08:49:39Z</time>
      </trkpt>
      <trkpt lat="48.39371" lon="2.77565">
        <ele>147.42</ele>
        <time>2014-03-02T08:49:58Z</time>
      </trkpt>
      <trkpt lat="48.39366" lon="2.77599">
        <ele>146.58</ele>
        <time>2014-03-02T08:50:14Z</time>
      </trkpt>
      <trkpt lat="48.39366" lon="2.77633">
        <ele>147.2</ele>
        <time>2014-03-02T08:50:34Z</time>
      </trkpt>
      <trkpt lat="48.39363" lon="2.77668">
        <ele>147.98</ele>
        <time>2014-03-02T08:50:51Z</time>
      </trkpt>
      <trkpt lat="48.39356" lon="2.77701">
        <ele>147.41</ele>
        <time>2014-03-02T08:51:08Z</time>
      </trkpt>
      <trkpt lat="48.39344" lon="2.7773">
        <ele>148.17</ele>
        <time>2014-03-02T08:51:31Z</time>
      </trkpt>
      <trkpt lat="48.39336" lon="2.77762">
        <ele>147.52</ele>
        <time>2014-03-02T08:51:53Z</time>
      </trkpt>
      <trkpt lat="48.39332" lon="2.77796">
        <ele>146.49</ele>
        <time>2014-03-02T08:52:14Z</time>
      </trkpt>
      <trkpt lat="48.39325" lon="2.77828">
        <ele>146.42</ele>
        <time>2014-03-02T08:52:33Z</time>
      </trkpt>
      <trkpt lat="48.39321" lon="2.77863">
        <ele>147.02</ele>
        <time>2014-03-02T08:52:55Z</time>
      </trkpt>
      <trkpt lat="48.39319" lon="2.77897">
        <ele>147.67</ele>
        <time>2014-03-02T08:53:13Z</time>
      </trkpt>
      <trkpt lat="48.39321" lon="2.77931">
        <ele>147.83</ele>
        <time>2014-03-02T08:53:34Z</time>
      </trkpt>
      <trkpt lat="48.39318" lon="2.77966">
        <ele>144.39</ele>
        <time>2014-03-02T08:53:50Z</time>
      </trkpt>
      <trkpt lat="48.3931" lon="2.77999">
        <ele>143.78</ele>
        <time>2014-03-02T08:54:10Z</time>
      </trkpt>
      <trkpt lat="48.39301" lon="2.7803">
        <ele>141.76</ele>
        <time>2014-03-02T08:54:31Z</time>
      </trkpt>
      <trkpt lat="48.39293" lon="2.78063">
        <ele>143.53</ele>
        <time>2014-03-02T08:54:56Z</time>
      </trkpt>
      <trkpt lat="48.39285" lon="2.78096">
        <ele>143.13</ele>
        <time>2014-03-02T08:55:14Z</time>
      </trkpt>
      <trkpt lat="48.39275" lon="2.78128">
        <ele>143.2</ele>
        <time>2014-03-02T08:55:34Z</time>
      </trkpt>
      <trkpt lat="48.39275" lon="2.78162">
        <ele>143.93</ele>
        <time>2014-03-02T08:55:55Z</time>
      </trkpt>
      <trkpt lat="48.39264" lon="2.78192">
        <ele>143.77</ele>
        <time>2014-03-02T08:56:10Z</time>
      </trkpt>
      <trkpt lat="48.39252" lon="2.78223">
        <ele>143.14</ele>
        <time>2014-03-02T08:56:29Z</time>
      </trkpt>
      <trkpt lat="48.39245" lon="2.78256">
        <ele>143.71</ele>
        <time>2014-03-02T08:56:50Z</time>
      </trkpt>
      <trkpt lat="48.39236" lon="2.78288">
        <ele>143.34</ele>
        <time>2014-03-02T08:57:13Z</time>
      </trkpt>
      <trkpt lat="48.39224" lon="2.78318">
        <ele>142.14</ele>
        <time>2014-03-02T08:57:37Z</time>
      </trkpt>
      <trkpt lat="48.39209" lon="2.78344">
        <ele>142.08</ele>
        <time>2014-03-02T08:57:56Z</time>
      </trkpt>
      <trkpt lat="48.39197" lon="2.78374">
        <ele>141.07</ele>
        <time>2014-03-02T08:58:17Z</time>
      </trkpt>
      <trkpt lat="48.39188" lon="2.78406">
        <ele>140.84</ele>
        <time>2014-03-02T08:58:32Z</time>
      </trkpt>
      <trkpt lat="48.39176" lon="2.78436">
        <ele>142</ele>
        <time>2014-03-02T08:58:58Z</time>
      </trkpt>
      <trkpt lat="48.39164" lon="2.78467">
        <ele>142.23</ele>
        <time>2014-03-02T08:59:16Z</time>
      </trkpt>
      <trkpt lat="48.39148" lon="2.78491">
        <ele>142.24</ele>
        <time>2014-03-02T08:59:31Z</time>
      </trkpt>
      <trkpt lat="48.3913" lon="2.78514">
        <ele>143.11</ele>
        <time>2014-03-02T08:59:58Z</time>
      </trkpt>
      <trkpt lat="48.39118" lon="2.78543">
        <ele>142.92</ele>
        <time>2014-03-02T09:00:18Z</time>
      </trkpt>
      <trkpt lat="48.39101" lon="2.78568">
        <ele>142.68</ele>
        <time>2014-03-02T09:00:37Z</time>
      </trkpt>
      <trkpt lat="48.39084" lon="2.78592">
        <ele>143.86</ele>
        <time>2014-03-02T09:00:58Z</time>
      </trkpt>
      <trkpt lat="48.39068" lon="2.78617">
        <ele>143.91</ele>
        <time>2014-03-02T09:01:18Z</time>
      </trkpt>
      <trkpt lat="48.39049" lon="2.78636">
        <ele>142.83</ele>
        <time>2014-03-02T09:01:39Z</time>
      </trkpt>
      <trkpt lat="48.39033" lon="2.7866">
        <ele>142.81</ele>
        <time>2014-03-02T09:01:57Z</time>
      </trkpt>
      <trkpt lat="48.39011" lon="2.78666">
        <ele>142.9</ele>
        <time>2014-03-02T09:02:14Z</time>
      </trkpt>
      <trkpt lat="48.39005" lon="2.787">
        <ele>143.76</ele>
        <time>2014-03-02T09:02:42Z</time>
      </trkpt>
      <trkpt lat="48.38987" lon="2.78721">
        <ele>143.43</ele>
        <time>2014-03-02T09:03:01Z</time>
      </trkpt>
      <trkpt lat="48.38969" lon="2.7874">
        <ele>142.34</ele>
        <time>2014-03-02T09:03:21Z</time>
      </trkpt>
      <trkpt lat="48.38949" lon="2.7876">
        <ele>142.16</ele>
        <time>2014-03-02T09:03:45Z</time>
      </trkpt>
      <trkpt lat="48.38927" lon="2.78776">
        <ele>141.82</ele>
        <time>2014-03-02T09:04:03Z</time>
      </trkpt>
      <trkpt lat="48.38906" lon="2.78792">
        <ele>140.09</ele>
        <time>2014-03-02T09:04:20Z</time>
      </trkpt>
      <trkpt lat="48.38885" lon="2.78805">
        <ele>139.92</ele>
        <time>2014-03-02T09:04:42Z</time>
      </trkpt>
      <trkpt lat="48.38863" lon="2.7882">
        <ele>140.52</ele>
        <time>2014-03-02T09:05:02Z</time>
      </trkpt>
      <trkpt lat="48.38842" lon="2.78836">
        <ele>139.56</ele>
        <time>2014-03-02T09:05:18Z</time>
      </trkpt>
      <trkpt lat="48.38822" lon="2.78855">
        <ele>138.14</ele>
        <time>2014-03-02T09:05:32Z</time>
      </trkpt>
      <trkpt lat="48.38802" lon="2.7887">
        <ele>138.51</ele>
        <time>2014-03-02T09:05:49Z</time>
      </trkpt>
      <trkpt lat="48.38779" lon="2.78874">
        <ele>137.37</ele>
        <time>2014-03-02T09:06:09Z</time>
      </trkpt>
      <trkpt lat="48.38757" lon="2.78885">
        <ele>136.48</ele>
        <time>2014-03-02T09:06:33Z</time>
      </trkpt>
      <trkpt lat="48.38737" lon="2.789">
        <ele>136.83</ele>
        <time>2014-03-02T09:06:50Z</time>
      </trkpt>
      <trkpt lat="48.38716" lon="2.78913">
        <ele>137.37</ele>
        <time>2014-03-02T09:07:08Z</time>
      </trkpt>
      <trkpt lat="48.38692" lon="2.78924">
        <ele>137.44</ele>
        <time>2014-03-02T09:07:27Z</time>
      </trkpt>
      <trkpt lat="48.38672" lon="2.78939">
        <ele>134.63</ele>
        <time>2014-03-02T09:07:44Z</time>
      </trkpt>
      <trkpt lat="48.38653" lon="2.78959">
        <ele>133.23</ele>
        <time>2014-03-02T09:10:05Z</time>
      </trkpt>
      <trkpt lat="48.38673" lon="2.78972">
        <ele>133.33</ele>
        <time>2014-03-02T09:11:25Z</time>
      </trkpt>
      <trkpt lat="48.38684" lon="2.79002">
        <ele>130.48</ele>
        <time>2014-03-02T09:11:51Z</time>
      </trkpt>
      <trkpt lat="48.38688" lon="2.79035">
        <ele>129.49</ele>
        <time>2014-03-02T09:12:19Z</time>
      </trkpt>
      <trkpt lat="48.38696" lon="2.7907">
        <ele>125.54</ele>
        <time>2014-03-02T09:12:43Z</time>
      </trkpt>
      <trkpt lat="48.38716" lon="2.79086">
        <ele>121.26</ele>
        <time>2014-03-02T09:13:25Z</time>
      </trkpt>
      <trkpt lat="48.38733" lon="2.79111">
        <ele>119.27</ele>
        <time>2014-03-02T09:13:50Z</time>
      </trkpt>
      <trkpt lat="48.38742" lon="2.79143">
        <ele>113.73</ele>
        <time>2014-03-02T09:14:10Z</time>
      </trkpt>
      <trkpt lat="48.38741" lon="2.79177">
        <ele>111.62</ele>
        <time>2014-03-02T09:14:57Z</time>
      </trkpt>
      <trkpt lat="48.38736" lon="2.7921">
        <ele>109.54</ele>
        <time>2014-03-02T09:15:38Z</time>
      </trkpt>
      <trkpt lat="48.38724" lon="2.79238">
        <ele>108.97</ele>
        <time>2014-03-02T09:16:01Z</time>
      </trkpt>
      <trkpt lat="48.38709" lon="2.79265">
        <ele>108.72</ele>
        <time>2014-03-02T09:16:15Z</time>
      </trkpt>
      <trkpt lat="48.38706" lon="2.79299">
        <ele>108.8</ele>
        <time>2014-03-02T09:16:31Z</time>
      </trkpt>
      <trkpt lat="48.38723" lon="2.79322">
        <ele>108.21</ele>
        <time>2014-03-02T09:16:59Z</time>
      </trkpt>
      <trkpt lat="48.38738" lon="2.7935">
        <ele>107.68</ele>
        <time>2014-03-02T09:17:22Z</time>
      </trkpt>
      <trkpt lat="48.3874" lon="2.79383">
        <ele>105.95</ele>
        <time>2014-03-02T09:17:39Z</time>
      </trkpt>
      <trkpt lat="48.38739" lon="2.79417">
        <ele>105.9</ele>
        <time>2014-03-02T09:17:56Z</time>
      </trkpt>
      <trkpt lat="48.38741" lon="2.79452">
        <ele>106.44</ele>
        <time>2014-03-02T09:18:18Z</time>
      </trkpt>
      <trkpt lat="48.38742" lon="2.79487">
        <ele>105.3</ele>
        <time>2014-03-02T09:18:37Z</time>
      </trkpt>
      <trkpt lat="48.3875" lon="2.7952">
        <ele>105.61</ele>
        <time>2014-03-02T09:19:00Z</time>
      </trkpt>
      <trkpt lat="48.38751" lon="2.79554">
        <ele>105.08</ele>
        <time>2014-03-02T09:19:15Z</time>
      </trkpt>
      <trkpt lat="48.38746" lon="2.79589">
        <ele>104.98</ele>
        <time>2014-03-02T09:19:32Z</time>
      </trkpt>
      <trkpt lat="48.38746" lon="2.79624">
        <ele>104.83</ele>
        <time>2014-03-02T09:19:57Z</time>
      </trkpt>
      <trkpt lat="48.38752" lon="2.79657">
        <ele>102.49</ele>
        <time>2014-03-02T09:20:21Z</time>
      </trkpt>
      <trkpt lat="48.38751" lon="2.79692">
        <ele>102.18</ele>
        <time>2014-03-02T09:20:40Z</time>
      </trkpt>
      <trkpt lat="48.38753" lon="2.79727">
        <ele>101.49</ele>
        <time>2014-03-02T09:20:58Z</time>
      </trkpt>
      <trkpt lat="48.38753" lon="2.79762">
        <ele>102.18</ele>
        <time>2014-03-02T09:21:17Z</time>
      </trkpt>
      <trkpt lat="48.38755" lon="2.79796">
        <ele>103.77</ele>
        <time>2014-03-02T09:21:41Z</time>
      </trkpt>
      <trkpt lat="48.38752" lon="2.79831">
        <ele>103.9</ele>
        <time>2014-03-02T09:22:01Z</time>
      </trkpt>
      <trkpt lat="48.38755" lon="2.79866">
        <ele>106.1</ele>
        <time>2014-03-02T09:22:25Z</time>
      </trkpt>
      <trkpt lat="48.38754" lon="2.79899">
        <ele>107.47</ele>
        <time>2014-03-02T09:22:53Z</time>
      </trkpt>
      <trkpt lat="48.38748" lon="2.79933">
        <ele>107.35</ele>
        <time>2014-03-02T09:23:10Z</time>
      </trkpt>
      <trkpt lat="48.38747" lon="2.79969">
        <ele>105.78</ele>
        <time>2014-03-02T09:23:30Z</time>
      </trkpt>
      <trkpt lat="48.38742" lon="2.80003">
        <ele>105.57</ele>
        <time>2014-03-02T09:23:49Z</time>
      </trkpt>
      <trkpt lat="48.38738" lon="2.80037">
        <ele>104.07</ele>
        <time>2014-03-02T09:24:05Z</time>
      </trkpt>
      <trkpt lat="48.38735" lon="2.80072">
        <ele>106.59</ele>
        <time>2014-03-02T09:24:29Z</time>
      </trkpt>
      <trkpt lat="48.38729" lon="2.80105">
        <ele>106.12</ele>
        <time>2014-03-02T09:24:49Z</time>
      </trkpt>
      <trkpt lat="48.38719" lon="2.80135">
        <ele>105.53</ele>
        <time>2014-03-02T09:25:09Z</time>
      </trkpt>
      <trkpt lat="48.38701" lon="2.80158">
        <ele>105.31</ele>
        <time>2014-03-02T09:25:45Z</time>
      </trkpt>
      <trkpt lat="48.38684" lon="2.80181">
        <ele>105.69</ele>
        <time>2014-03-02T09:26:07Z</time>
      </trkpt>
      <trkpt lat="48.38662" lon="2.80198">
        <ele>106.83</ele>
        <time>2014-03-02T09:26:28Z</time>
      </trkpt>
      <trkpt lat="48.38639" lon="2.80213">
        <ele>106.02</ele>
        <time>2014-03-02T09:26:48Z</time>
      </trkpt>
      <trkpt lat="48.38621" lon="2.80236">
        <ele>107.8</ele>
        <time>2014-03-02T09:27:08Z</time>
      </trkpt>
      <trkpt lat="48.386" lon="2.80248">
        <ele>106.14</ele>
        <time>2014-03-02T09:27:31Z</time>
      </trkpt>
      <trkpt lat="48.38581" lon="2.80269">
        <ele>106.12</ele>
        <time>2014-03-02T09:27:50Z</time>
      </trkpt>
      <trkpt lat="48.38569" lon="2.80299">
        <ele>106.99</ele>
        <time>2014-03-02T09:28:14Z</time>
      </trkpt>
      <trkpt lat="48.38554" lon="2.80325">
        <ele>107.09</ele>
        <time>2014-03-02T09:28:35Z</time>
      </trkpt>
      <trkpt lat="48.38541" lon="2.80353">
        <ele>108.69</ele>
        <time>2014-03-02T09:29:38Z</time>
      </trkpt>
      <trkpt lat="48.38528" lon="2.80382">
        <ele>108.92</ele>
        <time>2014-03-02T09:30:11Z</time>
      </trkpt>
      <trkpt lat="48.38528" lon="2.80416">
        <ele>117.9</ele>
        <time>2014-03-02T09:31:10Z</time>
      </trkpt>
      <trkpt lat="48.38513" lon="2.80442">
        <ele>115.35</ele>
        <time>2014-03-02T09:31:45Z</time>
      </trkpt>
      <trkpt lat="48.38498" lon="2.80469">
        <ele>111.3</ele>
        <time>2014-03-02T09:32:14Z</time>
      </trkpt>
      <trkpt lat="48.38483" lon="2.80495">
        <ele>106.38</ele>
        <time>2014-03-02T09:36:53Z</time>
      </trkpt>
      <trkpt lat="48.38469" lon="2.80523">
        <ele>105.98</ele>
        <time>2014-03-02T09:37:16Z</time>
      </trkpt>
      <trkpt lat="48.38451" lon="2.80544">
        <ele>107.5</ele>
        <time>2014-03-02T09:37:34Z</time>
      </trkpt>
      <trkpt lat="48.38431" lon="2.80525">
        <ele>106.13</ele>
        <time>2014-03-02T09:37:53Z</time>
      </trkpt>
      <trkpt lat="48.38411" lon="2.80508">
        <ele>105.48</ele>
        <time>2014-03-02T09:38:12Z</time>
      </trkpt>
      <trkpt lat="48.38394" lon="2.80532">
        <ele>105.57</ele>
        <time>2014-03-02T09:38:30Z</time>
      </trkpt>
      <trkpt lat="48.38404" lon="2.80563">
        <ele>106.17</ele>
        <time>2014-03-02T09:38:49Z</time>
      </trkpt>
      <trkpt lat="48.38404" lon="2.80597">
        <ele>105.81</ele>
        <time>2014-03-02T09:39:18Z</time>
      </trkpt>
      <trkpt lat="48.38387" lon="2.80621">
        <ele>105.69</ele>
        <time>2014-03-02T09:39:35Z</time>
      </trkpt>
      <trkpt lat="48.38371" lon="2.80648">
        <ele>105.04</ele>
        <time>2014-03-02T09:39:52Z</time>
      </trkpt>
      <trkpt lat="48.38354" lon="2.8067">
        <ele>104.9</ele>
        <time>2014-03-02T09:40:11Z</time>
      </trkpt>
      <trkpt lat="48.38337" lon="2.80693">
        <ele>104.8</ele>
        <time>2014-03-02T09:40:36Z</time>
      </trkpt>
      <trkpt lat="48.38325" lon="2.80723">
        <ele>106.07</ele>
        <time>2014-03-02T09:40:54Z</time>
      </trkpt>
      <trkpt lat="48.38307" lon="2.80743">
        <ele>107.63</ele>
        <time>2014-03-02T09:41:31Z</time>
      </trkpt>
      <trkpt lat="48.38295" lon="2.80772">
        <ele>108.42</ele>
        <time>2014-03-02T09:42:00Z</time>
      </trkpt>
      <trkpt lat="48.38276" lon="2.80794">
        <ele>106.56</ele>
        <time>2014-03-02T09:42:20Z</time>
      </trkpt>
      <trkpt lat="48.3826" lon="2.80818">
        <ele>107.12</ele>
        <time>2014-03-02T09:42:42Z</time>
      </trkpt>
      <trkpt lat="48.38241" lon="2.80839">
        <ele>108.56</ele>
        <time>2014-03-02T09:43:02Z</time>
      </trkpt>
      <trkpt lat="48.38222" lon="2.8086">
        <ele>108.1</ele>
        <time>2014-03-02T09:43:20Z</time>
      </trkpt>
      <trkpt lat="48.38206" lon="2.80887">
        <ele>109.5</ele>
        <time>2014-03-02T09:43:40Z</time>
      </trkpt>
      <trkpt lat="48.3819" lon="2.80911">
        <ele>109.17</ele>
        <time>2014-03-02T09:43:59Z</time>
      </trkpt>
      <trkpt lat="48.38172" lon="2.80936">
        <ele>109.1</ele>
        <time>2014-03-02T09:44:19Z</time>
      </trkpt>
      <trkpt lat="48.38157" lon="2.80961">
        <ele>109.18</ele>
        <time>2014-03-02T09:44:36Z</time>
      </trkpt>
      <trkpt lat="48.38144" lon="2.8099">
        <ele>109.28</ele>
        <time>2014-03-02T09:44:54Z</time>
      </trkpt>
      <trkpt lat="48.38129" lon="2.81016">
        <ele>108.95</ele>
        <time>2014-03-02T09:45:13Z</time>
      </trkpt>
      <trkpt lat="48.38113" lon="2.81042">
        <ele>108.98</ele>
        <time>2014-03-02T09:45:36Z</time>
      </trkpt>
      <trkpt lat="48.38101" lon="2.81072">
        <ele>108.73</ele>
        <time>2014-03-02T09:45:55Z</time>
      </trkpt>
      <trkpt lat="48.38087" lon="2.81101">
        <ele>108.45</ele>
        <time>2014-03-02T09:46:18Z</time>
      </trkpt>
      <trkpt lat="48.38077" lon="2.81132">
        <ele>108.4</ele>
        <time>2014-03-02T09:46:34Z</time>
      </trkpt>
      <trkpt lat="48.38054" lon="2.8114">
        <ele>108.14</ele>
        <time>2014-03-02T09:46:46Z</time>
      </trkpt>
      <trkpt lat="48.38049" lon="2.81174">
        <ele>108.24</ele>
        <time>2014-03-02T09:47:08Z</time>
      </trkpt>
      <trkpt lat="48.38047" lon="2.81208">
        <ele>109.7</ele>
        <time>2014-03-02T09:47:29Z</time>
      </trkpt>
      <trkpt lat="48.38037" lon="2.81239">
        <ele>108.79</ele>
        <time>2014-03-02T09:47:47Z</time>
      </trkpt>
      <trkpt lat="48.38022" lon="2.81265">
        <ele>107.67</ele>
        <time>2014-03-02T09:48:07Z</time>
      </trkpt>
      <trkpt lat="48.38024" lon="2.813">
        <ele>106.3</ele>
        <time>2014-03-02T09:48:27Z</time>
      </trkpt>
      <trkpt lat="48.38025" lon="2.81336">
        <ele>106.24</ele>
        <time>2014-03-02T09:48:43Z</time>
      </trkpt>
      <trkpt lat="48.3801" lon="2.81363">
        <ele>106.48</ele>
        <time>2014-03-02T09:48:58Z</time>
      </trkpt>
      <trkpt lat="48.3799" lon="2.81377">
        <ele>106.35</ele>
        <time>2014-03-02T09:49:14Z</time>
      </trkpt>
      <trkpt lat="48.37974" lon="2.81402">
        <ele>106.14</ele>
        <time>2014-03-02T09:49:33Z</time>
      </trkpt>
      <trkpt lat="48.3796" lon="2.81428">
        <ele>104.7</ele>
        <time>2014-03-02T09:49:49Z</time>
      </trkpt>
      <trkpt lat="48.37949" lon="2.81459">
        <ele>103.63</ele>
        <time>2014-03-02T09:50:14Z</time>
      </trkpt>
      <trkpt lat="48.37934" lon="2.81485">
        <ele>104.1</ele>
        <time>2014-03-02T09:50:34Z</time>
      </trkpt>
      <trkpt lat="48.37924" lon="2.81517">
        <ele>103.89</ele>
        <time>2014-03-02T09:50:54Z</time>
      </trkpt>
      <trkpt lat="48.37907" lon="2.8154">
        <ele>104.22</ele>
        <time>2014-03-02T09:51:09Z</time>
      </trkpt>
      <trkpt lat="48.3789" lon="2.81564">
        <ele>103.15</ele>
        <time>2014-03-02T09:51:28Z</time>
      </trkpt>
      <trkpt lat="48.37879" lon="2.81594">
        <ele>102.95</ele>
        <time>2014-03-02T09:51:47Z</time>
      </trkpt>
      <trkpt lat="48.37869" lon="2.81626">
        <ele>101.52</ele>
        <time>2014-03-02T09:52:06Z</time>
      </trkpt>
      <trkpt lat="48.37865" lon="2.81661">
        <ele>100.77</ele>
        <time>2014-03-02T09:52:44Z</time>
      </trkpt>
      <trkpt lat="48.37853" lon="2.81691">
        <ele>99.76</ele>
        <time>2014-03-02T09:53:01Z</time>
      </trkpt>
      <trkpt lat="48.37837" lon="2.81716">
        <ele>100.49</ele>
        <time>2014-03-02T09:53:20Z</time>
      </trkpt>
      <trkpt lat="48.37821" lon="2.8174">
        <ele>101.57</ele>
        <time>2014-03-02T09:53:41Z</time>
      </trkpt>
      <trkpt lat="48.37803" lon="2.81762">
        <ele>101.78</ele>
        <time>2014-03-02T09:53:55Z</time>
      </trkpt>
      <trkpt lat="48.37785" lon="2.81783">
        <ele>101.77</ele>
        <time>2014-03-02T09:54:12Z</time>
      </trkpt>
      <trkpt lat="48.37766" lon="2.81802">
        <ele>102.42</ele>
        <time>2014-03-02T09:54:28Z</time>
      </trkpt>
      <trkpt lat="48.37745" lon="2.81819">
        <ele>102.81</ele>
        <time>2014-03-02T09:54:48Z</time>
      </trkpt>
      <trkpt lat="48.37723" lon="2.81831">
        <ele>104.27</ele>
        <time>2014-03-02T09:55:04Z</time>
      </trkpt>
      <trkpt lat="48.37707" lon="2.81854">
        <ele>107.37</ele>
        <time>2014-03-02T09:55:26Z</time>
      </trkpt>
      <trkpt lat="48.37685" lon="2.81864">
        <ele>110.52</ele>
        <time>2014-03-02T09:55:40Z</time>
      </trkpt>
      <trkpt lat="48.37663" lon="2.81871">
        <ele>115.88</ele>
        <time>2014-03-02T09:55:51Z</time>
      </trkpt>
      <trkpt lat="48.37642" lon="2.81887">
        <ele>121.97</ele>
        <time>2014-03-02T09:56:04Z</time>
      </trkpt>
      <trkpt lat="48.37622" lon="2.81908">
        <ele>127.45</ele>
        <time>2014-03-02T09:56:29Z</time>
      </trkpt>
      <trkpt lat="48.37598" lon="2.81907">
        <ele>131.55</ele>
        <time>2014-03-02T09:56:44Z</time>
      </trkpt>
      <trkpt lat="48.37575" lon="2.81902">
        <ele>132.93</ele>
        <time>2014-03-02T09:56:59Z</time>
      </trkpt>
      <trkpt lat="48.37552" lon="2.81901">
        <ele>134.15</ele>
        <time>2014-03-02T09:57:20Z</time>
      </trkpt>
      <trkpt lat="48.37531" lon="2.81885">
        <ele>132.6</ele>
        <time>2014-03-02T09:57:42Z</time>
      </trkpt>
      <trkpt lat="48.37509" lon="2.81888">
        <ele>134.46</ele>
        <time>2014-03-02T09:58:00Z</time>
      </trkpt>
      <trkpt lat="48.37484" lon="2.81882">
        <ele>134.01</ele>
        <time>2014-03-02T09:58:11Z</time>
      </trkpt>
      <trkpt lat="48.37462" lon="2.81872">
        <ele>126.15</ele>
        <time>2014-03-02T09:58:38Z</time>
      </trkpt>
      <trkpt lat="48.37438" lon="2.81885">
        <ele>120.21</ele>
        <time>2014-03-02T09:59:13Z</time>
      </trkpt>
      <trkpt lat="48.37414" lon="2.81895">
        <ele>120.38</ele>
        <time>2014-03-02T09:59:25Z</time>
      </trkpt>
      <trkpt lat="48.37392" lon="2.81907">
        <ele>121.27</ele>
        <time>2014-03-02T09:59:43Z</time>
      </trkpt>
      <trkpt lat="48.3737" lon="2.81906">
        <ele>122.95</ele>
        <time>2014-03-02T10:00:05Z</time>
      </trkpt>
      <trkpt lat="48.37348" lon="2.81917">
        <ele>124.05</ele>
        <time>2014-03-02T10:00:20Z</time>
      </trkpt>
      <trkpt lat="48.37326" lon="2.81924">
        <ele>123.97</ele>
        <time>2014-03-02T10:00:37Z</time>
      </trkpt>
      <trkpt lat="48.37303" lon="2.81918">
        <ele>122.51</ele>
        <time>2014-03-02T10:01:02Z</time>
      </trkpt>
      <trkpt lat="48.37284" lon="2.81898">
        <ele>122.27</ele>
        <time>2014-03-02T10:01:21Z</time>
      </trkpt>
      <trkpt lat="48.37274" lon="2.81865">
        <ele>121.73</ele>
        <time>2014-03-02T10:01:39Z</time>
      </trkpt>
      <trkpt lat="48.37255" lon="2.81826">
        <ele>120.62</ele>
        <time>2014-03-02T10:02:09Z</time>
      </trkpt>
      <trkpt lat="48.37265" lon="2.81872">
        <ele>120.45</ele>
        <time>2014-03-02T10:03:08Z</time>
      </trkpt>
      <trkpt lat="48.37267" lon="2.81906">
        <ele>98.82</ele>
        <time>2014-03-02T10:03:36Z</time>
      </trkpt>
      <trkpt lat="48.37261" lon="2.81939">
        <ele>107.28</ele>
        <time>2014-03-02T10:03:58Z</time>
      </trkpt>
      <trkpt lat="48.37255" lon="2.81972">
        <ele>113.74</ele>
        <time>2014-03-02T10:06:46Z</time>
      </trkpt>
      <trkpt lat="48.37254" lon="2.82006">
        <ele>112.1</ele>
        <time>2014-03-02T10:07:07Z</time>
      </trkpt>
      <trkpt lat="48.37249" lon="2.8204">
        <ele>110.87</ele>
        <time>2014-03-02T10:07:29Z</time>
      </trkpt>
      <trkpt lat="48.37253" lon="2.82074">
        <ele>108.8</ele>
        <time>2014-03-02T10:07:47Z</time>
      </trkpt>
      <trkpt lat="48.37238" lon="2.821">
        <ele>108.46</ele>
        <time>2014-03-02T10:08:16Z</time>
      </trkpt>
      <trkpt lat="48.37219" lon="2.82121">
        <ele>108.19</ele>
        <time>2014-03-02T10:08:30Z</time>
      </trkpt>
      <trkpt lat="48.37209" lon="2.82153">
        <ele>109.82</ele>
        <time>2014-03-02T10:09:03Z</time>
      </trkpt>
      <trkpt lat="48.37201" lon="2.82185">
        <ele>107.85</ele>
        <time>2014-03-02T10:09:30Z</time>
      </trkpt>
      <trkpt lat="48.37189" lon="2.82215">
        <ele>106.89</ele>
        <time>2014-03-02T10:09:51Z</time>
      </trkpt>
      <trkpt lat="48.37192" lon="2.82249">
        <ele>107.15</ele>
        <time>2014-03-02T10:10:14Z</time>
      </trkpt>
      <trkpt lat="48.37181" lon="2.82278">
        <ele>106.01</ele>
        <time>2014-03-02T10:10:31Z</time>
      </trkpt>
      <trkpt lat="48.37172" lon="2.82311">
        <ele>105.95</ele>
        <time>2014-03-02T10:10:51Z</time>
      </trkpt>
      <trkpt lat="48.37167" lon="2.82345">
        <ele>105.87</ele>
        <time>2014-03-02T10:11:11Z</time>
      </trkpt>
      <trkpt lat="48.37155" lon="2.82375">
        <ele>106.35</ele>
        <time>2014-03-02T10:11:30Z</time>
      </trkpt>
      <trkpt lat="48.3715" lon="2.82409">
        <ele>107.37</ele>
        <time>2014-03-02T10:11:49Z</time>
      </trkpt>
      <trkpt lat="48.37139" lon="2.8244">
        <ele>105.7</ele>
        <time>2014-03-02T10:12:09Z</time>
      </trkpt>
      <trkpt lat="48.37127" lon="2.82469">
        <ele>106</ele>
        <time>2014-03-02T10:12:28Z</time>
      </trkpt>
      <trkpt lat="48.37125" lon="2.82503">
        <ele>106.45</ele>
        <time>2014-03-02T10:12:47Z</time>
      </trkpt>
      <trkpt lat="48.37117" lon="2.82537">
        <ele>106.23</ele>
        <time>2014-03-02T10:13:06Z</time>
      </trkpt>
      <trkpt lat="48.37098" lon="2.82553">
        <ele>105.76</ele>
        <time>2014-03-02T10:13:25Z</time>
      </trkpt>
      <trkpt lat="48.37097" lon="2.82587">
        <ele>106.18</ele>
        <time>2014-03-02T10:13:44Z</time>
      </trkpt>
      <trkpt lat="48.3709" lon="2.8262">
        <ele>109.27</ele>
        <time>2014-03-02T10:15:07Z</time>
      </trkpt>
      <trkpt lat="48.37086" lon="2.82654">
        <ele>111.11</ele>
        <time>2014-03-02T10:15:44Z</time>
      </trkpt>
      <trkpt lat="48.37081" lon="2.8269">
        <ele>111.42</ele>
        <time>2014-03-02T10:16:08Z</time>
      </trkpt>
      <trkpt lat="48.37073" lon="2.82722">
        <ele>109.98</ele>
        <time>2014-03-02T10:16:26Z</time>
      </trkpt>
      <trkpt lat="48.37066" lon="2.82755">
        <ele>110.3</ele>
        <time>2014-03-02T10:16:43Z</time>
      </trkpt>
      <trkpt lat="48.37061" lon="2.82788">
        <ele>110.25</ele>
        <time>2014-03-02T10:17:02Z</time>
      </trkpt>
      <trkpt lat="48.37048" lon="2.82816">
        <ele>110.5</ele>
        <time>2014-03-02T10:17:19Z</time>
      </trkpt>
      <trkpt lat="48.37038" lon="2.82848">
        <ele>111.1</ele>
        <time>2014-03-02T10:17:39Z</time>
      </trkpt>
      <trkpt lat="48.37032" lon="2.82883">
        <ele>110.51</ele>
        <time>2014-03-02T10:17:57Z</time>
      </trkpt>
      <trkpt lat="48.37025" lon="2.82916">
        <ele>111.66</ele>
        <time>2014-03-02T10:18:17Z</time>
      </trkpt>
      <trkpt lat="48.37019" lon="2.82949">
        <ele>113</ele>
        <time>2014-03-02T10:18:35Z</time>
      </trkpt>
      <trkpt lat="48.37007" lon="2.82978">
        <ele>113.72</ele>
        <time>2014-03-02T10:18:54Z</time>
      </trkpt>
      <trkpt lat="48.37001" lon="2.8301">
        <ele>114.4</ele>
        <time>2014-03-02T10:19:12Z</time>
      </trkpt>
      <trkpt lat="48.36989" lon="2.8304">
        <ele>114.28</ele>
        <time>2014-03-02T10:19:31Z</time>
      </trkpt>
      <trkpt lat="48.36973" lon="2.83065">
        <ele>115.58</ele>
        <time>2014-03-02T10:20:01Z</time>
      </trkpt>
      <trkpt lat="48.36961" lon="2.83095">
        <ele>114.9</ele>
        <time>2014-03-02T10:20:20Z</time>
      </trkpt>
      <trkpt lat="48.36938" lon="2.83107">
        <ele>116.12</ele>
        <time>2014-03-02T10:20:35Z</time>
      </trkpt>
      <trkpt lat="48.36915" lon="2.83112">
        <ele>116.77</ele>
        <time>2014-03-02T10:20:54Z</time>
      </trkpt>
      <trkpt lat="48.36891" lon="2.83119">
        <ele>118.37</ele>
        <time>2014-03-02T10:21:12Z</time>
      </trkpt>
      <trkpt lat="48.36869" lon="2.83129">
        <ele>120.21</ele>
        <time>2014-03-02T10:21:28Z</time>
      </trkpt>
      <trkpt lat="48.36846" lon="2.83134">
        <ele>120.27</ele>
        <time>2014-03-02T10:21:47Z</time>
      </trkpt>
      <trkpt lat="48.36824" lon="2.83138">
        <ele>121.18</ele>
        <time>2014-03-02T10:22:06Z</time>
      </trkpt>
      <trkpt lat="48.36801" lon="2.8314">
        <ele>122.88</ele>
        <time>2014-03-02T10:22:22Z</time>
      </trkpt>
      <trkpt lat="48.36778" lon="2.83138">
        <ele>123.39</ele>
        <time>2014-03-02T10:22:40Z</time>
      </trkpt>
      <trkpt lat="48.36755" lon="2.83135">
        <ele>125.87</ele>
        <time>2014-03-02T10:23:01Z</time>
      </trkpt>
      <trkpt lat="48.36732" lon="2.83142">
        <ele>125.98</ele>
        <time>2014-03-02T10:23:21Z</time>
      </trkpt>
      <trkpt lat="48.36711" lon="2.83156">
        <ele>126.2</ele>
        <time>2014-03-02T10:23:42Z</time>
      </trkpt>
      <trkpt lat="48.36691" lon="2.83172">
        <ele>127.12</ele>
        <time>2014-03-02T10:24:01Z</time>
      </trkpt>
      <trkpt lat="48.36668" lon="2.83174">
        <ele>123.14</ele>
        <time>2014-03-02T10:24:33Z</time>
      </trkpt>
      <trkpt lat="48.3665" lon="2.83196">
        <ele>123</ele>
        <time>2014-03-02T10:24:45Z</time>
      </trkpt>
      <trkpt lat="48.36633" lon="2.8322">
        <ele>118.21</ele>
        <time>2014-03-02T10:25:01Z</time>
      </trkpt>
      <trkpt lat="48.36615" lon="2.8324">
        <ele>116.75</ele>
        <time>2014-03-02T10:25:18Z</time>
      </trkpt>
      <trkpt lat="48.36598" lon="2.83264">
        <ele>118.68</ele>
        <time>2014-03-02T10:25:36Z</time>
      </trkpt>
      <trkpt lat="48.36579" lon="2.83282">
        <ele>115.36</ele>
        <time>2014-03-02T10:28:23Z</time>
      </trkpt>
      <trkpt lat="48.3657" lon="2.8325">
        <ele>117.83</ele>
        <time>2014-03-02T10:30:34Z</time>
      </trkpt>
      <trkpt lat="48.36581" lon="2.83281">
        <ele>118.1</ele>
        <time>2014-03-02T10:31:37Z</time>
      </trkpt>
      <trkpt lat="48.36561" lon="2.83298">
        <ele>117.86</ele>
        <time>2014-03-02T10:32:27Z</time>
      </trkpt>
      <trkpt lat="48.36546" lon="2.83322">
        <ele>118.97</ele>
        <time>2014-03-02T10:32:56Z</time>
      </trkpt>
      <trkpt lat="48.36527" lon="2.83343">
        <ele>121.24</ele>
        <time>2014-03-02T10:33:13Z</time>
      </trkpt>
      <trkpt lat="48.3651" lon="2.83366">
        <ele>121.57</ele>
        <time>2014-03-02T10:33:35Z</time>
      </trkpt>
      <trkpt lat="48.36497" lon="2.83394">
        <ele>119.58</ele>
        <time>2014-03-02T10:34:01Z</time>
      </trkpt>
      <trkpt lat="48.36485" lon="2.83424">
        <ele>118.97</ele>
        <time>2014-03-02T10:34:23Z</time>
      </trkpt>
      <trkpt lat="48.36467" lon="2.83446">
        <ele>119.68</ele>
        <time>2014-03-02T10:34:45Z</time>
      </trkpt>
      <trkpt lat="48.36452" lon="2.83471">
        <ele>118.1</ele>
        <time>2014-03-02T10:35:07Z</time>
      </trkpt>
      <trkpt lat="48.36437" lon="2.83499">
        <ele>120.04</ele>
        <time>2014-03-02T10:35:19Z</time>
      </trkpt>
      <trkpt lat="48.36429" lon="2.83531">
        <ele>119.8</ele>
        <time>2014-03-02T10:35:35Z</time>
      </trkpt>
      <trkpt lat="48.3642" lon="2.83563">
        <ele>119.3</ele>
        <time>2014-03-02T10:35:52Z</time>
      </trkpt>
      <trkpt lat="48.36409" lon="2.83594">
        <ele>119.87</ele>
        <time>2014-03-02T10:36:10Z</time>
      </trkpt>
      <trkpt lat="48.36403" lon="2.83628">
        <ele>119.23</ele>
        <time>2014-03-02T10:36:31Z</time>
      </trkpt>
      <trkpt lat="48.36398" lon="2.83661">
        <ele>118.73</ele>
        <time>2014-03-02T10:36:50Z</time>
      </trkpt>
      <trkpt lat="48.36392" lon="2.83694">
        <ele>117.01</ele>
        <time>2014-03-02T10:37:07Z</time>
      </trkpt>
      <trkpt lat="48.36397" lon="2.83728">
        <ele>116.88</ele>
        <time>2014-03-02T10:37:31Z</time>
      </trkpt>
      <trkpt lat="48.36417" lon="2.83745">
        <ele>117.47</ele>
        <time>2014-03-02T10:37:52Z</time>
      </trkpt>
      <trkpt lat="48.36439" lon="2.83754">
        <ele>120.26</ele>
        <time>2014-03-02T10:38:10Z</time>
      </trkpt>
      <trkpt lat="48.36458" lon="2.83771">
        <ele>122.67</ele>
        <time>2014-03-02T10:38:36Z</time>
      </trkpt>
      <trkpt lat="48.36477" lon="2.8379">
        <ele>124.12</ele>
        <time>2014-03-02T10:38:54Z</time>
      </trkpt>
      <trkpt lat="48.36471" lon="2.83824">
        <ele>124.46</ele>
        <time>2014-03-02T10:39:19Z</time>
      </trkpt>
      <trkpt lat="48.36465" lon="2.83857">
        <ele>125.89</ele>
        <time>2014-03-02T10:39:41Z</time>
      </trkpt>
      <trkpt lat="48.36451" lon="2.83883">
        <ele>128.79</ele>
        <time>2014-03-02T10:40:02Z</time>
      </trkpt>
      <trkpt lat="48.36435" lon="2.83911">
        <ele>129.8</ele>
        <time>2014-03-02T10:40:27Z</time>
      </trkpt>
      <trkpt lat="48.36423" lon="2.83941">
        <ele>130.6</ele>
        <time>2014-03-02T10:40:48Z</time>
      </trkpt>
      <trkpt lat="48.36408" lon="2.83969">
        <ele>131.8</ele>
        <time>2014-03-02T10:41:06Z</time>
      </trkpt>
      <trkpt lat="48.36393" lon="2.83996">
        <ele>134.3</ele>
        <time>2014-03-02T10:41:26Z</time>
      </trkpt>
      <trkpt lat="48.3638" lon="2.84024">
        <ele>136.86</ele>
        <time>2014-03-02T10:41:42Z</time>
      </trkpt>
      <trkpt lat="48.36366" lon="2.84052">
        <ele>136.61</ele>
        <time>2014-03-02T10:42:03Z</time>
      </trkpt>
      <trkpt lat="48.36351" lon="2.84079">
        <ele>137.2</ele>
        <time>2014-03-02T10:42:21Z</time>
      </trkpt>
      <trkpt lat="48.36337" lon="2.84108">
        <ele>137.78</ele>
        <time>2014-03-02T10:42:40Z</time>
      </trkpt>
      <trkpt lat="48.36324" lon="2.84135">
        <ele>137.09</ele>
        <time>2014-03-02T10:43:01Z</time>
      </trkpt>
      <trkpt lat="48.36301" lon="2.84138">
        <ele>140.97</ele>
        <time>2014-03-02T10:43:44Z</time>
      </trkpt>
      <trkpt lat="48.3628" lon="2.84124">
        <ele>143.48</ele>
        <time>2014-03-02T10:44:09Z</time>
      </trkpt>
      <trkpt lat="48.36261" lon="2.84143">
        <ele>138.76</ele>
        <time>2014-03-02T10:44:43Z</time>
      </trkpt>
      <trkpt lat="48.36241" lon="2.84161">
        <ele>139.68</ele>
        <time>2014-03-02T10:45:02Z</time>
      </trkpt>
      <trkpt lat="48.36227" lon="2.84188">
        <ele>137.83</ele>
        <time>2014-03-02T10:45:31Z</time>
      </trkpt>
      <trkpt lat="48.36216" lon="2.84218">
        <ele>135.53</ele>
        <time>2014-03-02T10:45:54Z</time>
      </trkpt>
      <trkpt lat="48.36203" lon="2.84247">
        <ele>133.56</ele>
        <time>2014-03-02T10:46:12Z</time>
      </trkpt>
      <trkpt lat="48.36193" lon="2.84279">
        <ele>131.39</ele>
        <time>2014-03-02T10:46:29Z</time>
      </trkpt>
      <trkpt lat="48.3618" lon="2.84307">
        <ele>130.98</ele>
        <time>2014-03-02T10:46:45Z</time>
      </trkpt>
      <trkpt lat="48.36163" lon="2.84331">
        <ele>128.79</ele>
        <time>2014-03-02T10:47:08Z</time>
      </trkpt>
      <trkpt lat="48.36148" lon="2.84359">
        <ele>129.7</ele>
        <time>2014-03-02T10:47:30Z</time>
      </trkpt>
      <trkpt lat="48.36129" lon="2.84379">
        <ele>135.07</ele>
        <time>2014-03-02T10:47:50Z</time>
      </trkpt>
      <trkpt lat="48.36107" lon="2.8439">
        <ele>144.63</ele>
        <time>2014-03-02T10:48:08Z</time>
      </trkpt>
      <trkpt lat="48.36084" lon="2.84385">
        <ele>149.09</ele>
        <time>2014-03-02T10:48:27Z</time>
      </trkpt>
      <trkpt lat="48.36061" lon="2.84385">
        <ele>151.29</ele>
        <time>2014-03-02T10:48:43Z</time>
      </trkpt>
      <trkpt lat="48.36039" lon="2.84392">
        <ele>151.67</ele>
        <time>2014-03-02T10:49:00Z</time>
      </trkpt>
      <trkpt lat="48.36016" lon="2.84393">
        <ele>151.8</ele>
        <time>2014-03-02T10:49:21Z</time>
      </trkpt>
      <trkpt lat="48.35994" lon="2.844">
        <ele>151.61</ele>
        <time>2014-03-02T10:49:40Z</time>
      </trkpt>
      <trkpt lat="48.35971" lon="2.84405">
        <ele>152.69</ele>
        <time>2014-03-02T10:51:57Z</time>
      </trkpt>
      <trkpt lat="48.3595" lon="2.84418">
        <ele>151</ele>
        <time>2014-03-02T10:52:16Z</time>
      </trkpt>
      <trkpt lat="48.35927" lon="2.8442">
        <ele>150.09</ele>
        <time>2014-03-02T10:52:39Z</time>
      </trkpt>
      <trkpt lat="48.35904" lon="2.84421">
        <ele>153.09</ele>
        <time>2014-03-02T10:52:58Z</time>
      </trkpt>
      <trkpt lat="48.3588" lon="2.8442">
        <ele>155.36</ele>
        <time>2014-03-02T10:53:16Z</time>
      </trkpt>
      <trkpt lat="48.35857" lon="2.84425">
        <ele>155.48</ele>
        <time>2014-03-02T10:53:36Z</time>
      </trkpt>
      <trkpt lat="48.35833" lon="2.84423">
        <ele>152.29</ele>
        <time>2014-03-02T10:53:56Z</time>
      </trkpt>
      <trkpt lat="48.35811" lon="2.84435">
        <ele>148.86</ele>
        <time>2014-03-02T10:54:27Z</time>
      </trkpt>
      <trkpt lat="48.35793" lon="2.84456">
        <ele>153.41</ele>
        <time>2014-03-02T10:54:43Z</time>
      </trkpt>
      <trkpt lat="48.35772" lon="2.84477">
        <ele>152.44</ele>
        <time>2014-03-02T10:54:58Z</time>
      </trkpt>
      <trkpt lat="48.35751" lon="2.84488">
        <ele>149.02</ele>
        <time>2014-03-02T10:55:21Z</time>
      </trkpt>
      <trkpt lat="48.35729" lon="2.845">
        <ele>147.92</ele>
        <time>2014-03-02T10:55:41Z</time>
      </trkpt>
      <trkpt lat="48.35707" lon="2.84506">
        <ele>146.9</ele>
        <time>2014-03-02T10:56:01Z</time>
      </trkpt>
      <trkpt lat="48.35684" lon="2.84517">
        <ele>146.75</ele>
        <time>2014-03-02T10:56:20Z</time>
      </trkpt>
      <trkpt lat="48.35662" lon="2.84525">
        <ele>146.82</ele>
        <time>2014-03-02T10:56:41Z</time>
      </trkpt>
      <trkpt lat="48.35639" lon="2.84536">
        <ele>146.37</ele>
        <time>2014-03-02T10:57:04Z</time>
      </trkpt>
      <trkpt lat="48.35616" lon="2.84548">
        <ele>147.1</ele>
        <time>2014-03-02T10:57:21Z</time>
      </trkpt>
      <trkpt lat="48.35592" lon="2.84558">
        <ele>150.1</ele>
        <time>2014-03-02T10:57:43Z</time>
      </trkpt>
      <trkpt lat="48.3557" lon="2.84564">
        <ele>147.74</ele>
        <time>2014-03-02T10:58:01Z</time>
      </trkpt>
      <trkpt lat="48.35547" lon="2.84571">
        <ele>146.49</ele>
        <time>2014-03-02T10:58:18Z</time>
      </trkpt>
      <trkpt lat="48.35525" lon="2.84575">
        <ele>141.76</ele>
        <time>2014-03-02T10:59:19Z</time>
      </trkpt>
      <trkpt lat="48.35502" lon="2.84582">
        <ele>141.5</ele>
        <time>2014-03-02T10:59:39Z</time>
      </trkpt>
      <trkpt lat="48.35479" lon="2.84588">
        <ele>140.96</ele>
        <time>2014-03-02T11:00:00Z</time>
      </trkpt>
      <trkpt lat="48.35458" lon="2.84605">
        <ele>140.73</ele>
        <time>2014-03-02T11:00:14Z</time>
      </trkpt>
      <trkpt lat="48.35436" lon="2.84609">
        <ele>143.15</ele>
        <time>2014-03-02T11:00:36Z</time>
      </trkpt>
      <trkpt lat="48.35414" lon="2.84616">
        <ele>144.1</ele>
        <time>2014-03-02T11:00:54Z</time>
      </trkpt>
      <trkpt lat="48.35391" lon="2.84622">
        <ele>144.97</ele>
        <time>2014-03-02T11:01:18Z</time>
      </trkpt>
      <trkpt lat="48.35369" lon="2.84632">
        <ele>145.84</ele>
        <time>2014-03-02T11:01:34Z</time>
      </trkpt>
      <trkpt lat="48.35347" lon="2.84645">
        <ele>148.58</ele>
        <time>2014-03-02T11:01:54Z</time>
      </trkpt>
      <trkpt lat="48.35324" lon="2.84654">
        <ele>151.17</ele>
        <time>2014-03-02T11:02:12Z</time>
      </trkpt>
      <trkpt lat="48.35303" lon="2.84669">
        <ele>152.06</ele>
        <time>2014-03-02T11:02:29Z</time>
      </trkpt>
      <trkpt lat="48.35282" lon="2.84684">
        <ele>154.62</ele>
        <time>2014-03-02T11:02:46Z</time>
      </trkpt>
      <trkpt lat="48.3526" lon="2.84692">
        <ele>155.08</ele>
        <time>2014-03-02T11:03:05Z</time>
      </trkpt>
      <trkpt lat="48.35239" lon="2.84706">
        <ele>154.19</ele>
        <time>2014-03-02T11:03:28Z</time>
      </trkpt>
      <trkpt lat="48.35219" lon="2.84722">
        <ele>157.66</ele>
        <time>2014-03-02T11:03:57Z</time>
      </trkpt>
      <trkpt lat="48.35202" lon="2.84746">
        <ele>167.25</ele>
        <time>2014-03-02T11:04:17Z</time>
      </trkpt>
      <trkpt lat="48.35179" lon="2.84753">
        <ele>171.35</ele>
        <time>2014-03-02T11:04:35Z</time>
      </trkpt>
      <trkpt lat="48.35174" lon="2.84718">
        <ele>136.55</ele>
        <time>2014-03-02T11:05:25Z</time>
      </trkpt>
      <trkpt lat="48.35151" lon="2.84732">
        <ele>135.4</ele>
        <time>2014-03-02T11:05:47Z</time>
      </trkpt>
      <trkpt lat="48.35134" lon="2.84754">
        <ele>144.14</ele>
        <time>2014-03-02T11:06:06Z</time>
      </trkpt>
      <trkpt lat="48.35115" lon="2.84773">
        <ele>144.92</ele>
        <time>2014-03-02T11:06:20Z</time>
      </trkpt>
      <trkpt lat="48.35096" lon="2.84791">
        <ele>146.39</ele>
        <time>2014-03-02T11:06:33Z</time>
      </trkpt>
      <trkpt lat="48.35079" lon="2.84816">
        <ele>148.86</ele>
        <time>2014-03-02T11:06:50Z</time>
      </trkpt>
      <trkpt lat="48.35063" lon="2.8484">
        <ele>151.38</ele>
        <time>2014-03-02T11:07:08Z</time>
      </trkpt>
      <trkpt lat="48.35046" lon="2.84864">
        <ele>152.94</ele>
        <time>2014-03-02T11:07:24Z</time>
      </trkpt>
      <trkpt lat="48.35031" lon="2.8489">
        <ele>156.23</ele>
        <time>2014-03-02T11:07:46Z</time>
      </trkpt>
      <trkpt lat="48.35013" lon="2.84911">
        <ele>154.25</ele>
        <time>2014-03-02T11:08:04Z</time>
      </trkpt>
      <trkpt lat="48.34994" lon="2.84933">
        <ele>153.4</ele>
        <time>2014-03-02T11:08:20Z</time>
      </trkpt>
      <trkpt lat="48.34979" lon="2.84959">
        <ele>153.5</ele>
        <time>2014-03-02T11:08:39Z</time>
      </trkpt>
      <trkpt lat="48.34957" lon="2.8495">
        <ele>158.79</ele>
        <time>2014-03-02T11:09:01Z</time>
      </trkpt>
      <trkpt lat="48.34936" lon="2.84966">
        <ele>157.59</ele>
        <time>2014-03-02T11:10:02Z</time>
      </trkpt>
      <trkpt lat="48.34941" lon="2.84933">
        <ele>137.1</ele>
        <time>2014-03-02T11:22:24Z</time>
      </trkpt>
      <trkpt lat="48.34931" lon="2.84963">
        <ele>141.55</ele>
        <time>2014-03-02T11:32:03Z</time>
      </trkpt>
      <trkpt lat="48.3495" lon="2.8494">
        <ele>123.22</ele>
        <time>2014-03-02T11:36:34Z</time>
      </trkpt>
      <trkpt lat="48.34938" lon="2.84969">
        <ele>135.56</ele>
        <time>2014-03-02T11:51:56Z</time>
      </trkpt>
      <trkpt lat="48.34943" lon="2.85002">
        <ele>134.48</ele>
        <time>2014-03-02T11:53:08Z</time>
      </trkpt>
      <trkpt lat="48.34923" lon="2.85021">
        <ele>132.43</ele>
        <time>2014-03-02T11:53:35Z</time>
      </trkpt>
      <trkpt lat="48.34904" lon="2.85041">
        <ele>132.57</ele>
        <time>2014-03-02T11:53:58Z</time>
      </trkpt>
      <trkpt lat="48.34886" lon="2.85065">
        <ele>131.37</ele>
        <time>2014-03-02T11:54:20Z</time>
      </trkpt>
      <trkpt lat="48.34878" lon="2.85097">
        <ele>130.01</ele>
        <time>2014-03-02T11:54:41Z</time>
      </trkpt>
      <trkpt lat="48.34888" lon="2.85128">
        <ele>130.4</ele>
        <time>2014-03-02T11:55:03Z</time>
      </trkpt>
      <trkpt lat="48.34901" lon="2.85158">
        <ele>129.26</ele>
        <time>2014-03-02T11:55:23Z</time>
      </trkpt>
      <trkpt lat="48.34916" lon="2.85184">
        <ele>129.12</ele>
        <time>2014-03-02T11:55:43Z</time>
      </trkpt>
      <trkpt lat="48.34929" lon="2.85211">
        <ele>128.61</ele>
        <time>2014-03-02T11:56:04Z</time>
      </trkpt>
      <trkpt lat="48.34934" lon="2.85245">
        <ele>128.14</ele>
        <time>2014-03-02T11:56:25Z</time>
      </trkpt>
      <trkpt lat="48.3494" lon="2.8528">
        <ele>128.95</ele>
        <time>2014-03-02T11:56:46Z</time>
      </trkpt>
      <trkpt lat="48.34942" lon="2.85313">
        <ele>128.97</ele>
        <time>2014-03-02T11:57:08Z</time>
      </trkpt>
      <trkpt lat="48.34948" lon="2.85347">
        <ele>129.57</ele>
        <time>2014-03-02T11:57:27Z</time>
      </trkpt>
      <trkpt lat="48.34951" lon="2.85382">
        <ele>128.85</ele>
        <time>2014-03-02T11:57:49Z</time>
      </trkpt>
      <trkpt lat="48.34956" lon="2.85415">
        <ele>129.17</ele>
        <time>2014-03-02T11:58:06Z</time>
      </trkpt>
      <trkpt lat="48.34963" lon="2.85448">
        <ele>130.11</ele>
        <time>2014-03-02T11:58:26Z</time>
      </trkpt>
      <trkpt lat="48.34967" lon="2.85481">
        <ele>132.16</ele>
        <time>2014-03-02T11:58:48Z</time>
      </trkpt>
      <trkpt lat="48.34972" lon="2.85515">
        <ele>131.28</ele>
        <time>2014-03-02T11:59:21Z</time>
      </trkpt>
      <trkpt lat="48.34978" lon="2.85548">
        <ele>132.31</ele>
        <time>2014-03-02T11:59:43Z</time>
      </trkpt>
      <trkpt lat="48.34983" lon="2.85582">
        <ele>133.29</ele>
        <time>2014-03-02T12:00:04Z</time>
      </trkpt>
      <trkpt lat="48.34989" lon="2.85615">
        <ele>133.22</ele>
        <time>2014-03-02T12:00:27Z</time>
      </trkpt>
      <trkpt lat="48.35012" lon="2.85618">
        <ele>130.01</ele>
        <time>2014-03-02T12:01:02Z</time>
      </trkpt>
      <trkpt lat="48.35035" lon="2.85619">
        <ele>130.37</ele>
        <time>2014-03-02T12:01:24Z</time>
      </trkpt>
      <trkpt lat="48.35057" lon="2.85625">
        <ele>129.74</ele>
        <time>2014-03-02T12:02:00Z</time>
      </trkpt>
      <trkpt lat="48.3506" lon="2.8566">
        <ele>128.5</ele>
        <time>2014-03-02T12:02:28Z</time>
      </trkpt>
      <trkpt lat="48.3506" lon="2.85695">
        <ele>129.72</ele>
        <time>2014-03-02T12:02:47Z</time>
      </trkpt>
      <trkpt lat="48.3506" lon="2.8573">
        <ele>131.48</ele>
        <time>2014-03-02T12:03:04Z</time>
      </trkpt>
      <trkpt lat="48.35064" lon="2.85764">
        <ele>132.67</ele>
        <time>2014-03-02T12:03:25Z</time>
      </trkpt>
      <trkpt lat="48.35067" lon="2.85798">
        <ele>133.88</ele>
        <time>2014-03-02T12:03:44Z</time>
      </trkpt>
      <trkpt lat="48.35064" lon="2.85833">
        <ele>134.27</ele>
        <time>2014-03-02T12:04:01Z</time>
      </trkpt>
      <trkpt lat="48.35064" lon="2.85868">
        <ele>134.49</ele>
        <time>2014-03-02T12:04:24Z</time>
      </trkpt>
      <trkpt lat="48.35063" lon="2.85902">
        <ele>134.8</ele>
        <time>2014-03-02T12:04:44Z</time>
      </trkpt>
      <trkpt lat="48.35061" lon="2.85937">
        <ele>134.31</ele>
        <time>2014-03-02T12:05:05Z</time>
      </trkpt>
      <trkpt lat="48.35061" lon="2.85971">
        <ele>134.82</ele>
        <time>2014-03-02T12:05:23Z</time>
      </trkpt>
      <trkpt lat="48.35057" lon="2.86005">
        <ele>134.32</ele>
        <time>2014-03-02T12:05:43Z</time>
      </trkpt>
      <trkpt lat="48.35054" lon="2.86039">
        <ele>135.49</ele>
        <time>2014-03-02T12:06:06Z</time>
      </trkpt>
      <trkpt lat="48.35053" lon="2.86074">
        <ele>137.67</ele>
        <time>2014-03-02T12:06:24Z</time>
      </trkpt>
      <trkpt lat="48.35048" lon="2.86109">
        <ele>138.39</ele>
        <time>2014-03-02T12:06:47Z</time>
      </trkpt>
      <trkpt lat="48.35045" lon="2.86143">
        <ele>139.51</ele>
        <time>2014-03-02T12:07:06Z</time>
      </trkpt>
      <trkpt lat="48.35045" lon="2.86177">
        <ele>140.07</ele>
        <time>2014-03-02T12:07:29Z</time>
      </trkpt>
      <trkpt lat="48.35043" lon="2.86211">
        <ele>141.2</ele>
        <time>2014-03-02T12:07:49Z</time>
      </trkpt>
      <trkpt lat="48.35042" lon="2.86245">
        <ele>142.47</ele>
        <time>2014-03-02T12:08:11Z</time>
      </trkpt>
      <trkpt lat="48.35042" lon="2.86282">
        <ele>142.38</ele>
        <time>2014-03-02T12:08:34Z</time>
      </trkpt>
      <trkpt lat="48.35045" lon="2.86315">
        <ele>143.87</ele>
        <time>2014-03-02T12:08:52Z</time>
      </trkpt>
      <trkpt lat="48.35053" lon="2.86348">
        <ele>152.47</ele>
        <time>2014-03-02T12:09:13Z</time>
      </trkpt>
      <trkpt lat="48.3506" lon="2.86381">
        <ele>166.65</ele>
        <time>2014-03-02T12:09:30Z</time>
      </trkpt>
      <trkpt lat="48.35064" lon="2.86415">
        <ele>174.8</ele>
        <time>2014-03-02T12:09:47Z</time>
      </trkpt>
      <trkpt lat="48.35072" lon="2.86449">
        <ele>179.17</ele>
        <time>2014-03-02T12:10:05Z</time>
      </trkpt>
      <trkpt lat="48.35079" lon="2.86482">
        <ele>183.27</ele>
        <time>2014-03-02T12:10:29Z</time>
      </trkpt>
      <trkpt lat="48.35078" lon="2.86517">
        <ele>164.08</ele>
        <time>2014-03-02T12:10:53Z</time>
      </trkpt>
      <trkpt lat="48.35081" lon="2.86552">
        <ele>156.66</ele>
        <time>2014-03-02T12:11:14Z</time>
      </trkpt>
      <trkpt lat="48.35086" lon="2.86586">
        <ele>153.15</ele>
        <time>2014-03-02T12:11:34Z</time>
      </trkpt>
      <trkpt lat="48.35087" lon="2.8662">
        <ele>149.84</ele>
        <time>2014-03-02T12:11:54Z</time>
      </trkpt>
      <trkpt lat="48.3509" lon="2.86655">
        <ele>148.51</ele>
        <time>2014-03-02T12:12:14Z</time>
      </trkpt>
      <trkpt lat="48.3509" lon="2.8669">
        <ele>146.62</ele>
        <time>2014-03-02T12:12:36Z</time>
      </trkpt>
      <trkpt lat="48.3509" lon="2.86724">
        <ele>146.72</ele>
        <time>2014-03-02T12:12:55Z</time>
      </trkpt>
      <trkpt lat="48.35088" lon="2.86758">
        <ele>146.03</ele>
        <time>2014-03-02T12:13:12Z</time>
      </trkpt>
      <trkpt lat="48.35088" lon="2.86793">
        <ele>145.21</ele>
        <time>2014-03-02T12:13:35Z</time>
      </trkpt>
      <trkpt lat="48.35088" lon="2.86828">
        <ele>145.69</ele>
        <time>2014-03-02T12:13:55Z</time>
      </trkpt>
      <trkpt lat="48.35089" lon="2.86863">
        <ele>145.77</ele>
        <time>2014-03-02T12:14:17Z</time>
      </trkpt>
      <trkpt lat="48.35086" lon="2.86896">
        <ele>145.9</ele>
        <time>2014-03-02T12:14:37Z</time>
      </trkpt>
      <trkpt lat="48.35088" lon="2.86931">
        <ele>145.41</ele>
        <time>2014-03-02T12:14:57Z</time>
      </trkpt>
      <trkpt lat="48.35086" lon="2.86966">
        <ele>145.27</ele>
        <time>2014-03-02T12:15:17Z</time>
      </trkpt>
      <trkpt lat="48.35087" lon="2.86999">
        <ele>146.6</ele>
        <time>2014-03-02T12:15:36Z</time>
      </trkpt>
      <trkpt lat="48.35088" lon="2.87034">
        <ele>147.77</ele>
        <time>2014-03-02T12:15:57Z</time>
      </trkpt>
      <trkpt lat="48.3509" lon="2.87069">
        <ele>148.96</ele>
        <time>2014-03-02T12:16:16Z</time>
      </trkpt>
      <trkpt lat="48.35096" lon="2.87103">
        <ele>150.02</ele>
        <time>2014-03-02T12:16:36Z</time>
      </trkpt>
      <trkpt lat="48.351" lon="2.87137">
        <ele>150</ele>
        <time>2014-03-02T12:16:56Z</time>
      </trkpt>
      <trkpt lat="48.35102" lon="2.87172">
        <ele>150.29</ele>
        <time>2014-03-02T12:17:16Z</time>
      </trkpt>
      <trkpt lat="48.35105" lon="2.87206">
        <ele>150.17</ele>
        <time>2014-03-02T12:17:38Z</time>
      </trkpt>
      <trkpt lat="48.35107" lon="2.87241">
        <ele>150.7</ele>
        <time>2014-03-02T12:17:57Z</time>
      </trkpt>
      <trkpt lat="48.35111" lon="2.87275">
        <ele>150.9</ele>
        <time>2014-03-02T12:18:16Z</time>
      </trkpt>
      <trkpt lat="48.35113" lon="2.8731">
        <ele>150.9</ele>
        <time>2014-03-02T12:18:36Z</time>
      </trkpt>
      <trkpt lat="48.35114" lon="2.87344">
        <ele>150.92</ele>
        <time>2014-03-02T12:18:54Z</time>
      </trkpt>
      <trkpt lat="48.35109" lon="2.87379">
        <ele>150.52</ele>
        <time>2014-03-02T12:19:12Z</time>
      </trkpt>
      <trkpt lat="48.35103" lon="2.87412">
        <ele>148.61</ele>
        <time>2014-03-02T12:19:35Z</time>
      </trkpt>
      <trkpt lat="48.35093" lon="2.87443">
        <ele>147.9</ele>
        <time>2014-03-02T12:19:53Z</time>
      </trkpt>
      <trkpt lat="48.35086" lon="2.87476">
        <ele>146.51</ele>
        <time>2014-03-02T12:20:13Z</time>
      </trkpt>
      <trkpt lat="48.35079" lon="2.87509">
        <ele>146.8</ele>
        <time>2014-03-02T12:20:33Z</time>
      </trkpt>
      <trkpt lat="48.35072" lon="2.87542">
        <ele>146.7</ele>
        <time>2014-03-02T12:20:52Z</time>
      </trkpt>
      <trkpt lat="48.35067" lon="2.87575">
        <ele>146.86</ele>
        <time>2014-03-02T12:21:12Z</time>
      </trkpt>
      <trkpt lat="48.3506" lon="2.87608">
        <ele>147.8</ele>
        <time>2014-03-02T12:21:30Z</time>
      </trkpt>
      <trkpt lat="48.35055" lon="2.87641">
        <ele>148.7</ele>
        <time>2014-03-02T12:21:49Z</time>
      </trkpt>
      <trkpt lat="48.35049" lon="2.87674">
        <ele>149.47</ele>
        <time>2014-03-02T12:22:09Z</time>
      </trkpt>
      <trkpt lat="48.35038" lon="2.87705">
        <ele>150.98</ele>
        <time>2014-03-02T12:22:32Z</time>
      </trkpt>
      <trkpt lat="48.35021" lon="2.87728">
        <ele>151.3</ele>
        <time>2014-03-02T12:22:48Z</time>
      </trkpt>
      <trkpt lat="48.35003" lon="2.87751">
        <ele>151.13</ele>
        <time>2014-03-02T12:23:19Z</time>
      </trkpt>
      <trkpt lat="48.34985" lon="2.87774">
        <ele>151.55</ele>
        <time>2014-03-02T12:23:38Z</time>
      </trkpt>
      <trkpt lat="48.34967" lon="2.87794">
        <ele>152.27</ele>
        <time>2014-03-02T12:24:00Z</time>
      </trkpt>
      <trkpt lat="48.34949" lon="2.87815">
        <ele>153.36</ele>
        <time>2014-03-02T12:24:18Z</time>
      </trkpt>
      <trkpt lat="48.34929" lon="2.87835">
        <ele>154.76</ele>
        <time>2014-03-02T12:24:36Z</time>
      </trkpt>
      <trkpt lat="48.3491" lon="2.87854">
        <ele>157.35</ele>
        <time>2014-03-02T12:24:56Z</time>
      </trkpt>
      <trkpt lat="48.34892" lon="2.87875">
        <ele>158.08</ele>
        <time>2014-03-02T12:26:00Z</time>
      </trkpt>
      <trkpt lat="48.34876" lon="2.87897">
        <ele>155.54</ele>
        <time>2014-03-02T12:26:15Z</time>
      </trkpt>
      <trkpt lat="48.34861" lon="2.87924">
        <ele>155.56</ele>
        <time>2014-03-02T12:26:33Z</time>
      </trkpt>
      <trkpt lat="48.34847" lon="2.87951">
        <ele>154.41</ele>
        <time>2014-03-02T12:26:51Z</time>
      </trkpt>
      <trkpt lat="48.34833" lon="2.87981">
        <ele>154.01</ele>
        <time>2014-03-02T12:27:08Z</time>
      </trkpt>
      <trkpt lat="48.3482" lon="2.88011">
        <ele>153.88</ele>
        <time>2014-03-02T12:27:26Z</time>
      </trkpt>
      <trkpt lat="48.34809" lon="2.88042">
        <ele>154.37</ele>
        <time>2014-03-02T12:27:46Z</time>
      </trkpt>
      <trkpt lat="48.34799" lon="2.88073">
        <ele>155.64</ele>
        <time>2014-03-02T12:28:02Z</time>
      </trkpt>
      <trkpt lat="48.3479" lon="2.88105">
        <ele>156.69</ele>
        <time>2014-03-02T12:28:19Z</time>
      </trkpt>
      <trkpt lat="48.34784" lon="2.88139">
        <ele>156.37</ele>
        <time>2014-03-02T12:28:39Z</time>
      </trkpt>
      <trkpt lat="48.34777" lon="2.88172">
        <ele>156.56</ele>
        <time>2014-03-02T12:28:57Z</time>
      </trkpt>
      <trkpt lat="48.3477" lon="2.88206">
        <ele>157.55</ele>
        <time>2014-03-02T12:29:18Z</time>
      </trkpt>
      <trkpt lat="48.34763" lon="2.88238">
        <ele>157.93</ele>
        <time>2014-03-02T12:29:39Z</time>
      </trkpt>
      <trkpt lat="48.34756" lon="2.88271">
        <ele>158.22</ele>
        <time>2014-03-02T12:29:57Z</time>
      </trkpt>
      <trkpt lat="48.34752" lon="2.88305">
        <ele>158.33</ele>
        <time>2014-03-02T12:30:18Z</time>
      </trkpt>
      <trkpt lat="48.34741" lon="2.88336">
        <ele>157.91</ele>
        <time>2014-03-02T12:30:38Z</time>
      </trkpt>
      <trkpt lat="48.34728" lon="2.88364">
        <ele>157.93</ele>
        <time>2014-03-02T12:30:55Z</time>
      </trkpt>
      <trkpt lat="48.34714" lon="2.88392">
        <ele>157.33</ele>
        <time>2014-03-02T12:31:11Z</time>
      </trkpt>
      <trkpt lat="48.347" lon="2.88421">
        <ele>156.37</ele>
        <time>2014-03-02T12:31:30Z</time>
      </trkpt>
      <trkpt lat="48.34688" lon="2.88451">
        <ele>156.5</ele>
        <time>2014-03-02T12:31:53Z</time>
      </trkpt>
      <trkpt lat="48.34676" lon="2.8848">
        <ele>155.43</ele>
        <time>2014-03-02T12:32:12Z</time>
      </trkpt>
      <trkpt lat="48.34663" lon="2.88508">
        <ele>155.22</ele>
        <time>2014-03-02T12:32:30Z</time>
      </trkpt>
      <trkpt lat="48.3465" lon="2.88538">
        <ele>154.86</ele>
        <time>2014-03-02T12:32:51Z</time>
      </trkpt>
      <trkpt lat="48.34638" lon="2.88566">
        <ele>156.33</ele>
        <time>2014-03-02T12:33:40Z</time>
      </trkpt>
      <trkpt lat="48.34623" lon="2.88594">
        <ele>159.47</ele>
        <time>2014-03-02T12:35:10Z</time>
      </trkpt>
      <trkpt lat="48.34609" lon="2.88621">
        <ele>157.32</ele>
        <time>2014-03-02T12:35:30Z</time>
      </trkpt>
      <trkpt lat="48.34593" lon="2.88646">
        <ele>157.99</ele>
        <time>2014-03-02T12:35:49Z</time>
      </trkpt>
      <trkpt lat="48.34574" lon="2.88671">
        <ele>158.98</ele>
        <time>2014-03-02T12:36:09Z</time>
      </trkpt>
      <trkpt lat="48.34558" lon="2.88696">
        <ele>159.33</ele>
        <time>2014-03-02T12:36:25Z</time>
      </trkpt>
      <trkpt lat="48.34538" lon="2.88712">
        <ele>158.01</ele>
        <time>2014-03-02T12:36:46Z</time>
      </trkpt>
      <trkpt lat="48.3452" lon="2.88733">
        <ele>158.14</ele>
        <time>2014-03-02T12:37:23Z</time>
      </trkpt>
      <trkpt lat="48.34501" lon="2.88754">
        <ele>158.26</ele>
        <time>2014-03-02T12:37:39Z</time>
      </trkpt>
      <trkpt lat="48.34486" lon="2.88779">
        <ele>159.34</ele>
        <time>2014-03-02T12:37:59Z</time>
      </trkpt>
      <trkpt lat="48.3447" lon="2.88805">
        <ele>159.61</ele>
        <time>2014-03-02T12:38:21Z</time>
      </trkpt>
      <trkpt lat="48.34454" lon="2.88831">
        <ele>160.16</ele>
        <time>2014-03-02T12:38:41Z</time>
      </trkpt>
      <trkpt lat="48.34438" lon="2.88858">
        <ele>160.51</ele>
        <time>2014-03-02T12:39:01Z</time>
      </trkpt>
      <trkpt lat="48.34425" lon="2.88887">
        <ele>160.87</ele>
        <time>2014-03-02T12:39:22Z</time>
      </trkpt>
      <trkpt lat="48.3441" lon="2.88913">
        <ele>161.61</ele>
        <time>2014-03-02T12:39:41Z</time>
      </trkpt>
      <trkpt lat="48.34394" lon="2.88939">
        <ele>163.12</ele>
        <time>2014-03-02T12:39:53Z</time>
      </trkpt>
      <trkpt lat="48.34374" lon="2.88957">
        <ele>162.68</ele>
        <time>2014-03-02T12:40:25Z</time>
      </trkpt>
      <trkpt lat="48.34352" lon="2.88963">
        <ele>162.19</ele>
        <time>2014-03-02T12:40:41Z</time>
      </trkpt>
      <trkpt lat="48.34329" lon="2.8896">
        <ele>163.02</ele>
        <time>2014-03-02T12:41:01Z</time>
      </trkpt>
      <trkpt lat="48.34306" lon="2.88955">
        <ele>165.36</ele>
        <time>2014-03-02T12:41:22Z</time>
      </trkpt>
      <trkpt lat="48.34283" lon="2.88962">
        <ele>166.18</ele>
        <time>2014-03-02T12:41:42Z</time>
      </trkpt>
      <trkpt lat="48.34266" lon="2.88987">
        <ele>165.68</ele>
        <time>2014-03-02T12:42:07Z</time>
      </trkpt>
      <trkpt lat="48.34262" lon="2.89021">
        <ele>165.87</ele>
        <time>2014-03-02T12:42:26Z</time>
      </trkpt>
      <trkpt lat="48.34266" lon="2.89055">
        <ele>168.12</ele>
        <time>2014-03-02T12:42:44Z</time>
      </trkpt>
      <trkpt lat="48.3428" lon="2.89085">
        <ele>168.73</ele>
        <time>2014-03-02T12:43:01Z</time>
      </trkpt>
      <trkpt lat="48.34279" lon="2.89119">
        <ele>170.53</ele>
        <time>2014-03-02T12:43:17Z</time>
      </trkpt>
      <trkpt lat="48.34278" lon="2.89154">
        <ele>170.18</ele>
        <time>2014-03-02T12:43:37Z</time>
      </trkpt>
      <trkpt lat="48.34283" lon="2.89188">
        <ele>170.53</ele>
        <time>2014-03-02T12:43:58Z</time>
      </trkpt>
      <trkpt lat="48.34284" lon="2.89222">
        <ele>170.21</ele>
        <time>2014-03-02T12:44:17Z</time>
      </trkpt>
      <trkpt lat="48.34269" lon="2.8925">
        <ele>169.34</ele>
        <time>2014-03-02T12:44:31Z</time>
      </trkpt>
      <trkpt lat="48.34253" lon="2.89273">
        <ele>166.81</ele>
        <time>2014-03-02T12:44:49Z</time>
      </trkpt>
      <trkpt lat="48.34247" lon="2.89307">
        <ele>166.33</ele>
        <time>2014-03-02T12:45:15Z</time>
      </trkpt>
      <trkpt lat="48.34261" lon="2.89336">
        <ele>165.83</ele>
        <time>2014-03-02T12:45:35Z</time>
      </trkpt>
      <trkpt lat="48.34271" lon="2.89367">
        <ele>164.37</ele>
        <time>2014-03-02T12:45:54Z</time>
      </trkpt>
      <trkpt lat="48.34282" lon="2.89397">
        <ele>163.8</ele>
        <time>2014-03-02T12:46:14Z</time>
      </trkpt>
      <trkpt lat="48.34296" lon="2.89423">
        <ele>160.51</ele>
        <time>2014-03-02T12:46:34Z</time>
      </trkpt>
      <trkpt lat="48.34306" lon="2.89454">
        <ele>161.57</ele>
        <time>2014-03-02T12:46:50Z</time>
      </trkpt>
      <trkpt lat="48.34317" lon="2.89484">
        <ele>162</ele>
        <time>2014-03-02T12:47:05Z</time>
      </trkpt>
      <trkpt lat="48.34305" lon="2.89514">
        <ele>163.21</ele>
        <time>2014-03-02T12:47:30Z</time>
      </trkpt>
      <trkpt lat="48.34289" lon="2.89537">
        <ele>164.64</ele>
        <time>2014-03-02T12:47:46Z</time>
      </trkpt>
      <trkpt lat="48.34272" lon="2.89561">
        <ele>165.83</ele>
        <time>2014-03-02T12:48:17Z</time>
      </trkpt>
      <trkpt lat="48.34266" lon="2.89594">
        <ele>167.59</ele>
        <time>2014-03-02T12:48:44Z</time>
      </trkpt>
      <trkpt lat="48.34278" lon="2.89623">
        <ele>171.53</ele>
        <time>2014-03-02T12:50:02Z</time>
      </trkpt>
      <trkpt lat="48.3428" lon="2.8963">
        <ele>172.2</ele>
        <time>2014-03-02T12:50:11Z</time>
      </trkpt>
    </trkseg>
  </trk>
</gpx>